RETRIEVE DATA

2000 2020
Return to Filters Location: TerrHSHoumaJHS

(Select "open with" and choose your office/spreadsheet program, then [Save] from within the program)
Dates: to -- Select the sort direction: -- Click any header to sort data by that column.
YWN0aW9uPXNob3cmc2l0ZT0xOA== sample_date
Site Name Sample Date Sample Time Grp # Bottom Temp Top Temp Bottom Salinity Top Salinity Bottom DO Top DO Bottom pH Top pH Bottom Turbidity Top Turbidity Depth
TerrHSHoumaJHS Apr 4, 2003 12:00 1 21 22 0 0 3.2 3.0 149
TerrHSHoumaJHS Apr 17, 2003 12:00 1 23 23 0 0 2.6 3.0 na na NA NA 152
TerrHSHoumaJHS Apr 30, 2003 12:00 1 25 25 0 0 NA NA 157
TerrHSHoumaJHS Apr 30, 2003 12:00 1 25 25 0 0 NA NA na na NA NA 157
TerrHSHoumaJHS Sep 26, 2003 08:36 4 NA 29 NA 0 NA 1.0 NA
TerrHSHoumaJHS Sep 26, 2003 08:38 1 NA 27 NA 0 NA 2.0 na na NA NA NA
TerrHSHoumaJHS Sep 26, 2003 08:36 3 NA 25 NA 0 NA 1.5 na na NA NA NA
TerrHSHoumaJHS Sep 26, 2003 8:36 2 NA 26 NA 0 NA 1.0 na na NA NA NA
TerrHSHoumaJHS Sep 27, 2003 08:33 5 NA 26.5 NA 0 NA 1.2 na na NA NA NA
TerrHSHoumaJHS Oct 16, 2003 8:13 1 NA 23 NA 0 NA 2 na na NA NA NA
TerrHSHoumaJHS Oct 16, 2003 8:15 2 NA 23 NA 0 NA 0.4 na na NA NA NA
TerrHSHoumaJHS Oct 15, 2003 8:10 5 NA 23 NA 0 NA 1.1 na na NA NA NA
TerrHSHoumaJHS Oct 15, 2003 8:11 4 NA 22 NA 4 NA 1.6 na na NA NA NA
TerrHSHoumaJHS Oct 15, 2003 8:11 3 NA 25 NA 0 NA 1.8 na na NA NA NA
TerrHSHoumaJHS Oct 15, 2003 8:10 6 0 25 0 0 0 3.1 na na NA NA 0
TerrHSHoumaJHS Oct 15, 2003 13:51 4 NA 24 NA 0 NA 3.2 na na NA NA NA
TerrHSHoumaJHS Oct 15, 2003 13:15 3 NA 26 NA 0 NA 1 na na NA NA NA
TerrHSHoumaJHS Oct 15, 2003 13:50 1 NA 24 NA 0 NA 2 na na NA NA NA
TerrHSHoumaJHS Oct 15, 2003 13:00 2 NA 24 NA 0 NA 4.8 na na NA NA NA
TerrHSHoumaJHS Oct 15, 2003 13:44 5 NA 23 NA 0 NA 3 na na NA NA NA
TerrHSHoumaJHS Oct 15, 2003 13:15 6 NA 24 NA 0 NA 2 na na NA NA NA
TerrHSHoumaJHS Jan 28, 2004 12:00 1 NA 14 NA 5 NA 3.8 NA NA NA NA NA
TerrHSHoumaJHS Jan 28, 2004 12:00 2 NA 14 NA 0 NA 3.6 NA NA NA NA NA
TerrHSHoumaJHS Jan 28, 2004 12:00 3 NA 12 NA 3 NA 5.9 NA NA NA NA NA
TerrHSHoumaJHS Feb 27, 2004 7:50 6 NA 14 NA 0 NA 5 NA NA NA
TerrHSHoumaJHS Feb 27, 2004 07:50 5 NA 10 NA 0.2 NA 10 NA NA NA NA NA
TerrHSHoumaJHS Feb 27, 2004 07:50 2 NA 14 NA 0.0 NA 4.8 NA NA NA NA NA
TerrHSHoumaJHS Feb 22, 2004 07:50 1 NA 12 NA 2.3 NA 6.9 NA NA NA NA NA
TerrHSHoumaJHS Feb 27, 2004 7:52 3 NA 12 NA 1.0 NA 4.4 NA NA NA NA NA
TerrHSHoumaJHS Oct 20, 2004 8:46 4 NA 25 NA 0 NA 4.4 NA 7.1 NA NA NA
TerrHSHoumaJHS Oct 20, 2004 7:58 3 NA 24 NA 0 NA 6.2 NA 7.1 NA NA NA
TerrHSHoumaJHS Oct 20, 2004 6:56 5 NA 24 NA 0 NA 3.6 NA 7 NA NA NA
TerrHSHoumaJHS Oct 20, 2004 8:46 2 NA 25 NA 0 NA 3 NA 7.0 NA NA NA
TerrHSHoumaJHS Oct 20, 2004 6:56 6 NA 26 NA 0 NA 2.9 NA 6.7 NA NA NA
TerrHSHoumaJHS Oct 20, 2004 8:56 4 NA 25 NA NA NA 4.4 NA 7.1 NA NA NA
TerrHSHoumaJHS Oct 20, 2004 6:56 1 NA 24 NA 2 NA 3.3 NA 7.1 NA NA NA
TerrHSHoumaJHS Oct 20, 2004 12:25 2 NA 25 NA 0 NA 3.1 NA 7.1 NA NA NA
TerrHSHoumaJHS Oct 20, 2004 12:25 5 NA 24 NA 0 NA 2.4 NA 7.2 NA NA NA
TerrHSHoumaJHS Oct 20, 2004 13:45 NA NA 25 NA 1 NA 3.8 NA 7.2 NA NA NA
TerrHSHoumaJHS Oct 20, 2004 12:25 4 NA 24 NA 0 NA 3.2 NA 7.2 NA NA NA
TerrHSHoumaJHS Oct 20, 2004 12:25 3 NA 24 NA 0 NA 3.4 NA 7.1 NA NA NA
TerrHSHoumaJHS Nov 22, 2004 09:00 1 21.7 21.7 NA 0 2.8 3.4 NA 6.8 na na 101
TerrHSHoumaJHS Oct 11, 2004 1:43 1 NA 23 NA 0.3 NA 1.2 NA 7.3 na na NA
TerrHSHoumaJHS Oct 11, 2004 1:43 2 NA 27 NA 1.5 NA 1.6 NA 7.1 na na NA
TerrHSHoumaJHS Oct 11, 2004 1:43 3 NA 24 NA 0.6 NA 3.2 NA 7.1 na na NA
TerrHSHoumaJHS Oct 11, 2004 1:43 5 NA 25 NA 0.8 NA 2.2 NA 7.1 na na NA
TerrHSHoumaJHS Oct 11, 2004 1:43 6 NA 24 NA 0.6 NA 0.8 NA 7.1 na na NA
TerrHSHoumaJHS Oct 11, 2004 1:43 6 NA 24 NA 0.6 NA 0.8 NA 7.1 na na NA
TerrHSHoumaJHS Jan 4, 2005 8:00 2 NA 18 NA 0 NA 3.4 NA 7.4 na na NA
TerrHSHoumaJHS Jan 3, 2005 07:30 1 NA 17 NA NA NA 3.6 NA NA na na NA
TerrHSHoumaJHS Jan 6, 2005 11:00 6 NA 20 NA 0.0 NA 3.0 NA 7.3 na na NA
TerrHSHoumaJHS Jan 4, 2005 7:45 1 NA 18 NA 0.0 NA 3.3 NA 7.4 na na NA
TerrHSHoumaJHS Jan 27, 2005 06:50 1 NA 16 NA 0 NA 5 NA 7.0 na na NA
TerrHSHoumaJHS Jan 27, 2005 09:05 3 NA 17 NA 0 NA 6 NA 7.0 na na NA
TerrHSHoumaJHS Jan 28, 2005 10:15 2 NA 15 NA 0 NA 5.6 NA 7.2 na na NA
TerrHSHoumaJHS Jan 27, 2005 10:00 5 NA 18 NA 0 NA 5.8 NA 7.4 na na NA
TerrHSHoumaJHS Jan 27, 2005 10:00 3 NA 16 NA 0 NA 5.0 NA 7.2 na na NA
TerrHSHoumaJHS Jan 27, 2005 10:10 6 NA 16 NA 0 NA 5.2 NA 7.6 na na NA
TerrHSHoumaJHS Jan 27, 2005 10:10 4 NA 16 NA 0 NA 5.0 NA 7.4 na na NA
TerrHSHoumaJHS Jan 27, 2005 10:11 1 NA 16 NA 0 NA 5.1 NA 7.0 na na NA
TerrHSHoumaJHS Feb 24, 2005 12:25 1 NA 19 NA 0 NA 5.2 NA 6 na na NA
TerrHSHoumaJHS Mar 2, 2005 11:10 5 NA 20 NA 0 NA 5 NA 7.6 na na NA
TerrHSHoumaJHS Mar 2, 2005 11:10 1 NA 17 NA 0 NA 5.5 NA 7.5 na na NA
TerrHSHoumaJHS Mar 2, 2005 11:10 4 NA 17.9 NA 1 NA 4.6 NA 7.5 na na NA
TerrHSHoumaJHS Mar 2, 2005 11:10 5 NA 20 NA 0 NA 5 NA 7.6 na na NA
TerrHSHoumaJHS Mar 2, 2005 11:10 4 NA 17.9 NA 1 NA 4.6 NA 7.5 na na NA
TerrHSHoumaJHS Apr 22, 2005 12:00 1 NA 25 NA 0 NA 4 NA 6.9 na na NA
TerrHSHoumaJHS Sep 27, 2005 11:15 1 NA 29 NA 3 NA 0.8 NA 6.5 na na NA
TerrHSHoumaJHS Feb 8, 2006 08:00 1 NA 15 NA NA NA 6 NA 7.8 na na NA
TerrHSHoumaJHS Aug 30, 2006 11:20 0123 NA 27.9 NA NA NA 0.8 NA 6.92 NA 60 NA
TerrHSHoumaJHS Aug 30, 2006 11:25 1 NA 27.8 NA 0 NA 1.2 NA 6.99 NA 60 NA
TerrHSHoumaJHS Aug 30, 2006 11:10 NA 27.7 NA NA NA 1.1 NA 7.24 NA 60 NA
TerrHSHoumaJHS Aug 31, 2006 12:00 NA 28 NA NA NA 1.0 NA 7.11 NA 60 NA
TerrHSHoumaJHS Aug 31, 2006 11:47 NA 27.9 NA NA NA 2 NA 7.09 NA 60 NA
TerrHSHoumaJHS Oct 4, 2006 07:50 4
TerrHSHoumaJHS Oct 4, 2006 07:50 4 NA 25.1 NA 0 NA 1.2 NA 8.09 NA 60 NA
TerrHSHoumaJHS Oct 4, 2006 07:50 1 NA 25.9 NA 0 NA 8.0 NA 7.25 NA 60 NA
TerrHSHoumaJHS Jan 1, 1900 38.3 386 2 7.7 48.1
TerrHSHoumaJHS Oct 4, 2006 07:50 2 NA 24.8 NA 0 NA 7.4 NA 4.93 NA 43.2 NA
TerrHSHoumaJHS Oct 4, 2006 09:45 3 NA 26.6 NA 0 NA 2.8 NA 7.85 NA 60 NA
TerrHSHoumaJHS Oct 4, 2006 10:51 2 NA 26.7 NA 0 NA 1.4 NA 4.98 NA 60 NA
TerrHSHoumaJHS Oct 4, 2006 07:50 2 NA
TerrHSHoumaJHS Oct 4, 2006 07:50 4 NA 25.1 NA 188 NA 1.2 NA 8.09 NA 60 NA
TerrHSHoumaJHS Oct 4, 2006 07:50 1 NA 25.9 NA 0 NA 8.0 NA 7.25 NA 60 NA
TerrHSHoumaJHS Oct 4, 2006 7:50 3 NA 38.3 NA 0 NA 2 NA 7.7 NA 48.1 NA
TerrHSHoumaJHS Oct 4, 2006 07:50 1 NA 25.9 NA 0 NA 8.0 NA 7.25 NA 60 NA
TerrHSHoumaJHS Oct 4, 2006 07:50 2 NA 24.8 NA 0 NA 2.6 NA 4.93 NA 43.2 NA
TerrHSHoumaJHS Oct 4, 2006 07:50 8 24.8 0 4.2 7.26 60 NA
TerrHSHoumaJHS Oct 4, 2006 07:50 6 NA 24.3 NA 0 NA 1.2 NA 7.52 NA 59.8 NA
TerrHSHoumaJHS Oct 4, 2006 07:50 10 24.9 0 2.5 7.38 60 NA
TerrHSHoumaJHS Oct 4, 2006 07:50 5 NA 25.1 NA 0 NA 2.2 NA 7.57 NA 60 NA
TerrHSHoumaJHS Oct 4, 2006 07:50 7 NA 25.2 NA 0 NA 1.5 NA 6.89 NA 60 NA
TerrHSHoumaJHS Oct 4, 2006 07:50 9 NA 24.9 NA 0 NA 2 NA 6.99 NA 60 NA
TerrHSHoumaJHS Oct 4, 2006 09.45 4 NA 26.4 NA 0. NA 2 NA 7.1 NA 60 NA
TerrHSHoumaJHS Oct 4, 2006 09.45 4 NA 26.4 NA 0. NA 2 NA 7.1 NA 60 NA
TerrHSHoumaJHS Oct 4, 2006 09:45 2 NA 26.5 NA 0. NA 4 NA 7.82 NA 60 NA
TerrHSHoumaJHS Oct 4, 2006 09:45 6 NA 25.9 NA 0. NA 2.0 NA 7.45 NA 60 NA
TerrHSHoumaJHS Oct 4, 2006 09:45 7 NA 26.2 NA 0. NA .8 NA 6.92 NA 60 NA
TerrHSHoumaJHS Oct 4, 2006 09:45 8 na 25.9 na 361 na na na
TerrHSHoumaJHS Oct 4, 2006 09:45 8 na 25.9 na 361 na 2.2 na 7.57 na 60 na
TerrHSHoumaJHS Oct 4, 2006 09:45 9 NA 26.6 NA 0 NA 2.2 NA 7.85 NA 60 NA
TerrHSHoumaJHS Oct 4, 2006 10:51 3 NA 27.3 NA 0 NA 1.67 NA 7.76 NA 60 NA
TerrHSHoumaJHS Oct 4, 2006 10:51 1 NA 27.4 NA 0 NA 1.5 NA 6.99 NA 60 NA
TerrHSHoumaJHS Jan 1, 1900 10:51 4 NA 27C NA 0 NA 1.1 NA 8.03 NA 60 NA
TerrHSHoumaJHS Oct 4, 2006 10:51 5 NA 26.9 NA 0 NA 2.8 NA 7.65 NA 60 NA
TerrHSHoumaJHS Oct 4, 2006 10:51 6 N/A 26.6 N/A 0 N/A 3.2 N/A 7.5 N/A 60 N/A
TerrHSHoumaJHS Oct 4, 2006 10:51 7 NA 27.1 NA 0 NA 1 NA 7.01 NA 60 NA
TerrHSHoumaJHS Oct 4, 2006 10:51 10 28.8 0 1.8 7.42 60 NA
TerrHSHoumaJHS Oct 4, 2006 10:51 9 NA 27.1 NA 0 NA 1 NA 6.99 45 NA
TerrHSHoumaJHS Oct 4, 2006 10:51 10 28.8 0 1.8 7.42 60 NA
TerrHSHoumaJHS Oct 4, 2006 1051 8 NA 27 NA 364 NA 2.4 NA 7.25 NA 7.34 NA
TerrHSHoumaJHS Oct 31, 2006 7:41 3 N/A 19.4 N/A N/A N/A N/A N/A 7.5 N/A N/A N/A
TerrHSHoumaJHS Oct 31, 2006 0745 8 N/A 19.4 N/A N/A N/A 73.40 N/A 573 N/A N/A N/A
TerrHSHoumaJHS Oct 31, 2006 0745 8 N/A 19.4 N/A N/A N/A 73.40 N/A 573 N/A N/A N/A
TerrHSHoumaJHS Oct 31, 2006 7:50 2 N/A 19.4C N/A N/A N/A N/A N/A 7.14 N/A N/A N/A
TerrHSHoumaJHS Oct 31, 2006 0755 10 N/A 19.8 N/A N/A N/A N/A 7.27 7.27 N/A N/A N/A
TerrHSHoumaJHS Oct 31, 2006 07:50 5 N/A 19.6 N/A N/A N/A N/A N/A 7.53 N/A N/A NA
TerrHSHoumaJHS Oct 31, 2006 07:50 1 n/a 20 n/a n/a n/a n/a n/a 7.6 n/a n/a n/a
TerrHSHoumaJHS Oct 31, 2006 0755 4 N/A 20.0 N/A N/A N/A N/A N/A 10.32 N/A N/A N/A
TerrHSHoumaJHS Oct 31, 2006 7:50 9 N/A 20.0 N/A N N/A N/A 7.19
TerrHSHoumaJHS Oct 30, 2006 8:00 6 20.4 7.31
TerrHSHoumaJHS Oct 31, 2006 07:50 9 N/A 20.0 N/A N/A N/A N/A N/A 7.19 N/A N/A N/A
TerrHSHoumaJHS Feb 9, 2007 13:05 One 18.1 0 3.6 7.56 33.2 NA
TerrHSHoumaJHS Feb 9, 2007 13:05 Two NA 18.1 NA N/A NA NA NA NA NA NA NA
TerrHSHoumaJHS Feb 9, 2007 13:05 NA NA 19 NA NA NA 12 NA 7.56 NA 45 NA
TerrHSHoumaJHS Feb 9, 2007 13:05 Group Two NA 18.1 NA NA NA NA NA NA NA NA NA
TerrHSHoumaJHS Feb 9, 2007 13:05 Five NA 18.75 NA NA NA 3.2 NA 7.43 NA 49.2 NA
TerrHSHoumaJHS Feb 9, 2007 13:05 Group Four NA 19 NA NA NA 3 NA 19 NA NA NA
TerrHSHoumaJHS Feb 9, 2007 13:05 Group Four NA 19 NA NA NA NA NA 19 NA NA NA
TerrHSHoumaJHS Feb 9, 2007 13:05 Seven NA 17.8 NA NA NA 7.2 NA 7.48 NA 51 NA
TerrHSHoumaJHS Feb 9, 2007 13:05 Nine NA 18.3 NA NA NA 7 NA 7.7 NA 40.1 NA
TerrHSHoumaJHS Feb 9, 2007 13:05 Group Six NA 18.6 NA NA NA 7 NA 6.87 NA NA NA
TerrHSHoumaJHS Feb 9, 2007 13:05 Group Eight NA 21,9 NA NA NA 20 NA 7.89 NA 23.6 NA
TerrHSHoumaJHS Feb 9, 2007 13.05 Group Ten NA 17.8 NA NA NA 5 NA 7.58 NA 46 NA
TerrHSHoumaJHS Apr 30, 2007 13:15 One NA 27.3 NA 0 NA 2.8 NA 7.64 NA 30.3 NA
TerrHSHoumaJHS Apr 30, 2007 13:05 Two NA 26.5 NA 0 NA 7 NA 7.3 NA NA NA
TerrHSHoumaJHS Apr 30, 2007 13:05 Ten NA 27.3 NA 0 NA 2.3 NA NA NA 37 NA
TerrHSHoumaJHS Apr 30, 2007 13:05 Three NA 27 NA 0 NA NA NA NA NA 30.8 NA
TerrHSHoumaJHS Apr 30, 2007 13:05 Five NA 26.9 NA 0 NA 2.3 NA 283 NA 16 NA
TerrHSHoumaJHS Apr 30, 2007 13:05 Six NA 27.3 NA 0 NA 2 NA 283 NA 33.3 NA
TerrHSHoumaJHS Apr 30, 2007 13:05 Seven NA 26 NA 0 NA 4.8 NA 7.6 NA 23 NA
TerrHSHoumaJHS Apr 30, 2007 13:05 Eight NA 27 NA 0 NA 4.5 NA 7.6 NA 51 NA
TerrHSHoumaJHS Apr 30, 2007 13:05 Nine NA 27.1 NA 0 NA 11 NA 8.71 NA 24 NA
TerrHSHoumaJHS Aug 29, 2007 9:15 NA NA 29 NA 0 NA 1.2 NA 7.1 NA 60 NA
TerrHSHoumaJHS Aug 28, 2007 09:15 1 NA 29 NA 0 NA 1.2 NA 7.8 NA >60 NA
TerrHSHoumaJHS Aug 28, 2007 0900 NA NA 29 NA 0 NA 1.8 NA 8.4 NA 55
TerrHSHoumaJHS Aug 28, 2007 0900 NA NA 28 NA 0 NA 1.4 NA 7.4 NA 57 NA
TerrHSHoumaJHS Aug 29, 2007 9:07 NA NA 28 NA NA NA NA NA NA NA NA NA
TerrHSHoumaJHS Aug 29, 2007 09:30 NA NA 30 NA 0 NA 3 NA 8 NA 60 NA
TerrHSHoumaJHS Aug 29, 2007 9:25 1 NA 27 NA 0 NA 1.4 NA 8 NA 60 NA
TerrHSHoumaJHS Aug 28, 2007 9:25 2 NA 27 NA 0 NA 1.4 NA 8.0 NA 60 NA
TerrHSHoumaJHS Aug 29, 2007 9:07 NA NA 28 NA 0 NA 1.4 NA 6.7 NA 60 NA
TerrHSHoumaJHS Feb 11, 2008 11:05 10 NA 19 NA 0 NA 2.4 7.52 NA NA 24.8
TerrHSHoumaJHS Feb 11, 2008 11:05 9 NA 22.3 NA NA NA 6 NA 7.5 NA 40.5 NA
TerrHSHoumaJHS Feb 11, 2008 11:05 7 NA 19.4 NA 22 NA - NA 7.37 NA 45 NA
TerrHSHoumaJHS Feb 11, 2008 11:05 4 NA 22.3 NA NA NA 6 NA NA NA 40.5 NA
TerrHSHoumaJHS Feb 11, 2008 11:05 2 NA 39.9 NA 213 NA 6.5 NA 7.38 NA 45 NA
TerrHSHoumaJHS Feb 11, 2008 11:05 6 NA 19.8 NA 205 NA 4.2 NA 7.35 NA 48 NA
TerrHSHoumaJHS Feb 11, 2008 11:05 5 NA 19.63 NA - NA 2 NA 7.62 NA 40.5 NA
TerrHSHoumaJHS Feb 11, 2008 11:05 1 NA 20.4 NA 220 NA 2.4 NA 7.31 NA 37.6 NA
TerrHSHoumaJHS Feb 11, 2008 11:05 3 NA 19.2 NA NA NA 3.4 NA 7.52 NA 51 NA
TerrHSHoumaJHS Feb 11, 2008 11:05 8 NA 19.8 NA pr NA 2.8 NA 7.65 NA 56 NA
TerrHSHoumaJHS Feb 14, 2008 13:10 One (4) NA 17.2 NA 0 NA 4.2 NA 7.45 NA 36.6 NA
TerrHSHoumaJHS Feb 14, 2008 13:10 Two (4) NA 16 NA 0 NA 5.2 NA 190??? NA 46 NA
TerrHSHoumaJHS Feb 14, 2008 13:10 Three (4) NA 17 NA 0 NA 7.1 NA 7.6 NA 37 NA
TerrHSHoumaJHS Feb 14, 2008 13:10 Four (4) NA 17.1 NA 0 NA 5.2 NA 7.41 NA 32.2 NA
TerrHSHoumaJHS Feb 14, 2008 13:10 Five (4) NA 17.2 NA 0 NA 8 NA 7.38 NA 40 NA
TerrHSHoumaJHS Feb 14, 2008 13:10 Six (4) NA 17.4 NA 0 NA 4.8 NA 7.42 NA 50.6 NA
TerrHSHoumaJHS Feb 14, 2008 13:10 Seven (4) NA 16.8 NA 0 NA 5 NA 7.49 NA 48.2 NA
TerrHSHoumaJHS Feb 14, 2008 13:10 Eight (4) NA 17.6 NA 0 NA 5.4 NA 7.51 NA 39.1 NA
TerrHSHoumaJHS Feb 14, 2008 13:10 Nine (4) NA 18.6 NA 0 NA 4.5 NA 198??? NA 33 NA
TerrHSHoumaJHS Feb 14, 2008 13:10 Ten (4) NA NA NA 0 NA 7.1 NA 7.52 NA 39.8 NA
TerrHSHoumaJHS Feb 14, 2008 9:25? One (2) NA 17 NA 0 NA 5.5 NA 16.5??? NA 39 NA
TerrHSHoumaJHS Feb 14, 2008 9:28? Two (2) NA 13.5 NA 0 NA 5.8 NA 7.64 NA 49 NA
TerrHSHoumaJHS Feb 14, 2008 9:20 Three (2) NA 15.4 NA 0 NA 4.5 NA 7.8 NA 36 NA
TerrHSHoumaJHS Feb 14, 2008 9:30? Four (2) NA 15.6 NA 0 NA 6 NA 7.4 NA 48 NA
TerrHSHoumaJHS Feb 14, 2008 9:20 Five (2) NA 15.4 NA 0 NA 4.8 NA 7.58 NA 40 NA
TerrHSHoumaJHS Feb 14, 2008 9:10? Six (2) NA 15.7 NA 0 NA 7 NA 7.59 NA 26.4 NA
TerrHSHoumaJHS Feb 14, 2008 9:20 Seven (2) NA 45.3 NA 0 NA ??? NA 1.6??? NA 46 NA
TerrHSHoumaJHS Feb 14, 2008 9:20 Eight (2) NA 17 NA 0 NA 5.8 NA 7.55 NA 55 NA
TerrHSHoumaJHS Feb 14, 2008 9:20 Nine (2) NA 16 NA 0 NA 5 NA 7.5 NA 30 NA
TerrHSHoumaJHS Feb 14, 2008 9:20 Ten (2) NA 15.4 NA 0 NA 7.1 NA 7.6 NA 40.2 NA
TerrHSHoumaJHS Feb 14, 2008 7:52? One (1) NA 14.3 NA 0 NA 4.5 NA 7.47 NA 20.6 NA
TerrHSHoumaJHS Feb 14, 2008 7:49 Two (1) NA 15.3 NA 0 NA ??? NA 22??? NA 84??? NA
TerrHSHoumaJHS Feb 14, 2008 7:49 Three (1) NA 15.8 NA 0 NA 5 NA 7.65 NA 38 3/5 NA
TerrHSHoumaJHS Feb 14, 2008 7:50? Four (1) NA 14.4 NA 0 NA 6.4 NA 7.34 NA 51.4 NA
TerrHSHoumaJHS Feb 14, 2008 7:49 Five (1) NA 14.2 NA 0 NA 2 NA 7.54 38.4 NA
TerrHSHoumaJHS Feb 14, 2008 7:49 Six (1) NA 15.4 NA 0 NA 8 NA 7.47 NA 33 NA
TerrHSHoumaJHS Feb 14, 2008 7:50? Eight (1) NA 14.1 NA 0 NA 7 NA 7.49 NA 42 NA
TerrHSHoumaJHS Feb 14, 2008 7:49 Nine (1) NA 25??? NA 0 NA 5.6 NA 7.2 NA 30 NA
TerrHSHoumaJHS Feb 14, 2008 7:15? Ten (1) NA 15.9 NA 0 NA 9.3 NA 7.54 NA 30.5 NA
TerrHSHoumaJHS Feb 14, 2008 7.49 Seven (1) NA 15.7 NA 0 NA 5 NA 7.61 NA 43 NA
TerrHSHoumaJHS Oct 27, 2008 10:25 7 14 17 4 5 4 3 8.1 8.7 19 19 NA
TerrHSHoumaJHS Apr 25, 2008 11:10 One NA 26.3 NA 0 NA 4.2 NA 7.6 NA 40.5 NA
TerrHSHoumaJHS Apr 25, 2008 11:08 Two NA 28.7 NA 0 NA 6 NA 7.57 NA 56.2 NA
TerrHSHoumaJHS Apr 25, 2008 11:08 Three NA 25.1 NA NA NA 4.5 NA 7.73 NA 39.2 NA
TerrHSHoumaJHS Apr 25, 2008 11:08 Four NA 22.9 NA 0 NA 5.5 NA NA NA 50.5 NA
TerrHSHoumaJHS Apr 25, 2008 11:08 Five NA 21.2 NA 0 NA 4 NA 7.68 NA 32 NA
TerrHSHoumaJHS Apr 25, 2008 11:08 Six NA 25.7 NA NA NA 3.75 NA 7.61 NA 28 NA
TerrHSHoumaJHS Apr 25, 2008 11:08 Seven NA 25.4 NA 0 NA 2.0 NA 20 NA 52 NA
TerrHSHoumaJHS Apr 25, 2008 11:08 Eight NA 25.2 NA NA NA NA NA NA NA NA NA
TerrHSHoumaJHS Apr 25, 2008 11:08 Nine NA 26.6 NA 0 NA 5.5 NA 18.9 NA 50.5 NA
TerrHSHoumaJHS Apr 25, 2008 11:08 T en NA 26.4 NA 0 NA 2.4 NA 7.6 NA 45 NA
TerrHSHoumaJHS Oct 21, 2008 9:26 3 NA 22 NA 1.003 NA 2.1 NA 7 NA 48.4 NA
TerrHSHoumaJHS Oct 21, 2008 9:26 4 NA 22 NA 3 NA 6 NA 7 NA 50 NA
TerrHSHoumaJHS Nov 10, 2008 9:16 3 NA 18 NA 1.4 NA 3.2 NA 7 NA 60+ NA
TerrHSHoumaJHS Nov 10, 2008 9:16 4 NA 18 NA 4 NA 5 NA 7 NA 56.4 NA
TerrHSHoumaJHS Oct 21, 2008 9:26 1 NA 22 NA 1.002 NA 2.1 NA 7 NA 54 NA
TerrHSHoumaJHS Nov 10, 2008 9:16 9 NA 18 NA 5 NA 3.2 NA 6 NA 60+ NA
TerrHSHoumaJHS Oct 21, 2008 9:26 9 NA 22 NA 4 NA 3.2 NA 7 NA 46 NA
TerrHSHoumaJHS Oct 21, 2008 9:23 2 NA 22 NA 4 NA 6 NA 7 NA 52.6
TerrHSHoumaJHS Oct 21, 2008 9:26 NA NA NA NA NA NA NA NA NA NA NA NA
TerrHSHoumaJHS Nov 10, 2008 9:16 1 NA 18 NA 1.4 NA 4.2 NA 7 NA 60 NA
TerrHSHoumaJHS Oct 21, 2008 9:26 6 NA 22 NA 3.4 NA 8 NA 6 NA 40 NA
TerrHSHoumaJHS Nov 10, 2008 9:16 2 NA 18 NA 5 NA 3.8 NA 7 NA 58 NA
TerrHSHoumaJHS Nov 10, 2008 9:16 5 NA 18 NA 1.4 NA 5.2 NA 7 NA 56.4 NA
TerrHSHoumaJHS Nov 10, 2008 9:16 6 NA 18 NA 3 NA 6 NA 7 NA 60+ NA
TerrHSHoumaJHS Oct 21, 2008 9:26 7 NA 22 NA 4 NA 6 NA 7 NA 47.4 NA
TerrHSHoumaJHS Nov 10, 2008 9:16 8 NA 18 NA 5 NA 1 NA 7 NA 60+ NA
TerrHSHoumaJHS Nov 10, 2008 9:16 7 NA 18 NA 1.2 NA 3 NA 7 NA 60+ NA
TerrHSHoumaJHS Oct 21, 2008 9:26 10 na 22 NA 4 NA 1.2 NA 7 NA 42 NA
TerrHSHoumaJHS Oct 21, 2008 9:26 8 NA 22 NA 1.002 NA 2 NA 5 NA 60.3+ NA
TerrHSHoumaJHS Nov 10, 2008 10:59 4 NA 18 NA 1.004 NA 3.6 NA 7 NA 60 NA
TerrHSHoumaJHS Oct 21, 2008 11:08 2 NA 25 NA 1.002 NA 3.2 NA 6 NA 55.1 NA
TerrHSHoumaJHS Oct 21, 2008 11:08 1 NA 25 NA 1.002 NA 2.6 NA 6 NA 50.2 NA
TerrHSHoumaJHS Oct 21, 2008 11:08 4 NA 25 NA 1.002 NA 3.6 NA 6 NA 49.2 NA
TerrHSHoumaJHS Jan 1, 1900 10:59 1 NA 18 NA 1.004 NA 1.1 NA 7 NA 60 NA
TerrHSHoumaJHS Oct 21, 2008 11:08 5 NA 75 NA 1 NA 2.3 NA 6 NA 3 NA
TerrHSHoumaJHS Nov 10, 2008 10:59 NA NA 18 NA 4.5 NA 3.8 NA 7 NA 60 NA
TerrHSHoumaJHS Nov 10, 2008 10:59 9 NA 18 NA 7 NA 1 NA 6 NA 60 NA
TerrHSHoumaJHS Nov 10, 2008 10:59 5 NA 18 NA 5 NA 3.1 NA 7 NA 8 NA
TerrHSHoumaJHS Oct 21, 2008 11:08 9 NA 25 NA 1.002 NA 1 NA 6 NA 62 NA
TerrHSHoumaJHS Oct 21, 2008 11:08 8 NA 25 NA 1.002 NA 2.85 NA 6 NA 38 NA
TerrHSHoumaJHS Oct 21, 2008 11:08 6 NA 25 NA 1.002 NA 3.6 NA 6 NA 49.7 NA
TerrHSHoumaJHS Jan 1, 1900 11:08 9 NA 25 NA NA NA NA 6 NA 43 NA
TerrHSHoumaJHS Nov 10, 2008 10:59 8 NA 18 NA 1.004 NA 3.8 NA 7 NA 60 NA
TerrHSHoumaJHS Nov 10, 2008 10:59 6 NA 18 NA 5 NA 4 NA 7 NA 48 NA
TerrHSHoumaJHS Nov 10, 2008 10:59 7 NA 18 NA 1.004 NA 3.8 NA 6 NA 60+ NA
TerrHSHoumaJHS Jan 1, 1900 10:59 9 NA 18 NA 1.001 NA NA NA 6 NA 60 NA
TerrHSHoumaJHS Oct 21, 2008 11;08 NA NA 25 NA 1.002 NA 2.3 NA 6 NA 48 NA
TerrHSHoumaJHS Oct 21, 2008 11:08 10 NA 25 NA 1.002 NA 26 NA 6 NA 56 NA
TerrHSHoumaJHS Nov 10, 2008 10:59 10 NA 18 NA 20.5 NA 19 NA 7 NA 56 NA
TerrHSHoumaJHS Nov 24, 2008 1245 NA NA NA NA NA NA NA NA NA NA NA NA
TerrHSHoumaJHS Jan 30, 2009 10:57 NA NA 14 NA NA NA 5 NA 7.9 NA 38 NA
TerrHSHoumaJHS Jan 30, 2009 10:57 7 NA 15 NA 389.67 NA 4.5 NA 7.9 NA 36 NA
TerrHSHoumaJHS Jan 30, 2009 10:57 2 N/A 15 N/A 389.67 NA 6.9 NA 7.9 NA 43 NA
TerrHSHoumaJHS Jan 30, 2009 10:57 NA NA 16 NA 390.8 NA 7 NA 8 NA 35 NA
TerrHSHoumaJHS Jan 30, 2009 10:57 8 NA 16 NA 390.8 NA 6 NA 7.9 NA 45 NA
TerrHSHoumaJHS Jan 30, 2009 10:57 6 NA 15 NA 389.67 NA 4 NA 7.8 NA 41.5 NA
TerrHSHoumaJHS Jan 30, 2009 10:57 4 NA 15 NA 389.67 NA 7.8 NA 7.7 NA 37.4 NA
TerrHSHoumaJHS Jan 30, 2009 10:57 3 NA 14 NA NA 6 NA 7.8 NA 3.5 NA
TerrHSHoumaJHS Jan 30, 2009 10:57 6 NA 14 NA 388.56 NA 7.9 NA 7.7 NA 4.9 NA
TerrHSHoumaJHS Jan 30, 2009 10;54 1 14.5 NA 1.3 NA 6.2 NA 7.8 NA 40 NA NA
TerrHSHoumaJHS Jan 30, 2009 10;54 1 14.5 NA 1.3 NA 6.2 NA 7.8 NA 40 NA NA
TerrHSHoumaJHS Jan 30, 2009 10;54 1 14.5 NA 1.3 NA 6.2 NA 7.8 NA 40 NA NA
TerrHSHoumaJHS Feb 11, 2009 11:45 5 NA 18 NA NA NA 8 NA 7.9 NA 34 NA
TerrHSHoumaJHS Oct 11, 2009 1149 4 NA 18 NA NA NA 5 NA 7.9 NA 51 cm 8
TerrHSHoumaJHS Feb 11, 2009 11:45 3 NA 14 NA NA NA 4.8 NA 8.2 NA 25 NA
TerrHSHoumaJHS Feb 11, 2009 11:52 Group #9 NA 19 NA NA NA 5.1 NA 7.8 NA 30 NA
TerrHSHoumaJHS Feb 11, 2009 11:49 6 NA 21 NA NA NA 8.8 NA 7.9 NA 34.2 cm NA
TerrHSHoumaJHS Feb 11, 2009 11 18 NA NA 1 8 NA 7.9 NA 34 NA
TerrHSHoumaJHS Feb 11, 2009 n/a 2 na 18 NA na NA 5.1 NA 7.8 NA 35.8 NA
TerrHSHoumaJHS Feb 11, 2009 11:52 10 20 NA NA 2.2 NA 7.9 NA 34c.m NA NA
TerrHSHoumaJHS Feb 11, 2009 13:25 #1 NA 20 NA NA NA 6.3 NA 7.8 NA 35 cm NA
TerrHSHoumaJHS Feb 12, 2009 13:25 10 NA 21 NA 20.2 NA 6.5 NA 7.8 NA 36.8 NA
TerrHSHoumaJHS Feb 11, 2009 14:00 7 NA 5 NA NA NA 2 NA 7.9 NA 37.8 NA
TerrHSHoumaJHS Feb 11, 2009 1300 5 NA 20.1 NA NA NA 6 NA 7.9 NA 40 CM NA
TerrHSHoumaJHS Feb 11, 2009 1300 5 NA 20.1 NA NA NA 6 NA 7.9 NA 40 CM NA
TerrHSHoumaJHS Feb 11, 2009 13:25 3 NA 15C NA NA NA 4.4 NA 7.9 NA 43 cm NA
TerrHSHoumaJHS Feb 11, 2009 13 33 8 NA 15 NA NA NA 3 NA 7.8 NA 20.1 NA
TerrHSHoumaJHS Feb 11, 2009 1327 2 18 NA NA 1.3 NA 7.9 NA 57.1 NA
TerrHSHoumaJHS Feb 11, 2009 1:39 9 20 NA NA NA 2 NA 8.0 NA 32 cm NA
TerrHSHoumaJHS Feb 11, 2009 1230 4 NA 71 NA NA 3.8 NA 7.7 NA 47 NA
TerrHSHoumaJHS Feb 12, 2009 13:25 6 NA 22 C NA NA NA 5 mg NA 7.9 NA 34.8 NA
TerrHSHoumaJHS Jan 30, 2009 7:48 7 NA 14 NA 1.33 NA 8 NA 8.1 NA 44.2 NA
TerrHSHoumaJHS Jan 30, 2009 7:48 9 NA 15 NA 1.3 NA 3.25 NA 8.0 NA 40 NA
TerrHSHoumaJHS Mar 2, 2009 7:52 3 NA 15 NA 8 NA 5.9 NA 8.4 NA 5.9 NA
TerrHSHoumaJHS Mar 2, 2009 7:47 5 NA 15 NA 8 NA 5.4 NA 7.9 NA 40.2 NA
TerrHSHoumaJHS Mar 2, 2009 7:47 9 NA 15 NA 9.8 NA 2.3 NA 8.0 NA 42 NA
TerrHSHoumaJHS Jan 30, 2009 7:48 5 NA 15 NA 7.3 NA 5.2 NA 8.3 NA 49 NA
TerrHSHoumaJHS Mar 2, 2009 7:47 7 NA 15 NA 1.7 NA 5.9 NA 8.3 NA 60 NA
TerrHSHoumaJHS Mar 2, 2009 7:47 4 NA 15 C NA 8 NA 6.4 NA 8.5 NA 61 NA
TerrHSHoumaJHS Mar 2, 2009 7:47 2 15 NA 9.8 NA 2.3 NA 8.0 NA 60 NA
TerrHSHoumaJHS Jan 30, 2009 7:47 1 NA 14 NA 1.3 NA 4 NA 7.7 NA 52 NA
TerrHSHoumaJHS Jan 30, 2009 7;48 3 NA 14 NA 1.3 NA 4 NA 8.1 NA 48.5 NA
TerrHSHoumaJHS Jan 1, 1900 7:48 NA NA NA NA NA NA NA NA NA NA NA NA
TerrHSHoumaJHS Jan 30, 2009 7:48 8 NA 15 NA 1.3 NA 5 NA 8.3 NA 46 NA
TerrHSHoumaJHS Jan 30, 2009 7:48 6 NA 42 NA 1.3 NA 4.2 NA 8.1 NA 50
TerrHSHoumaJHS Mar 2, 2009 7:48 6 NA 15 NA 8 NA 3.2 NA 8.5 NA 48 NA
TerrHSHoumaJHS Mar 2, 2009 7:47 8 NA 15 NA 10 NA 7 NA 8.6 NA 56 NA
TerrHSHoumaJHS Mar 2, 2009 7:47 1 NA 14 NA 9 NA 4.2 NA 7.9 NA 47 NA
TerrHSHoumaJHS Mar 2, 2009 NA NA 15 NA NA NA 5 NA 8.1 NA 60+ NA
TerrHSHoumaJHS Jan 30, 2009 7:48 4 NA 15 C NA 1.3 NA 4 NA 8.1 NA 48.5 NA
TerrHSHoumaJHS Jan 30, 2009 NA NA 15 NA 1.33 NA 5.4 NA 8.3 na 46 NA
TerrHSHoumaJHS Jan 30, 2009 7:48 2 NA 14 NA 1.3 NA 4 NA 8.1 NA 48.5 NA
TerrHSHoumaJHS Mar 2, 2009 NA NA 16 NA 5 NA 6.4 NA 7.8 NA 60+ NA
TerrHSHoumaJHS Mar 2, 2009 1059 6 NA 15 NA 5 NA 4.4 NA 7.8 NA 60+ NA
TerrHSHoumaJHS Mar 2, 2009 10 15 NA 5 NA NA NA 7.9 NA 60+ NA
TerrHSHoumaJHS Mar 2, 2009 10:59 9 NA 20 NA 5 NA 4.2 NA NA NA 45 NA
TerrHSHoumaJHS Mar 2, 2009 10:59 NA NA 15 NA 5 NA 5 NA 7.9 NA 60+ NA
TerrHSHoumaJHS Mar 2, 2009 10:59 NA NA 15 NA 5 NA 5.2 NA 7.8 NA 60+ NA
TerrHSHoumaJHS Mar 2, 2009 10 NA NA NA NA NA NA NA NA NA NA NA NA
TerrHSHoumaJHS Mar 2, 2009 10:59 4 NA 18.6 NA 5 NA 4.6 NA 7.6 NA 62 NA
TerrHSHoumaJHS Mar 2, 2009 10:59 1 15 NA NA NA 6.8 NA 7.6 NA 62 NA NA
TerrHSHoumaJHS Mar 2, 2009 10:59 Group 7 NA 15 NA 4 NA 3 1/2 NA 7.8 NA 12 NA
TerrHSHoumaJHS Mar 2, 2009 10:59 Group 7 NA 15 NA 4 NA 3 1/2 NA 7.8 NA 12 NA
TerrHSHoumaJHS Mar 2, 2009 10:59 3 NA 16 NA 5 NA 5 NA 7.7 NA 43 NA
TerrHSHoumaJHS Mar 2, 2009 13:08 1 NA 17 NA 5 NA 4.6 NA 7.7 NA 35 NA
TerrHSHoumaJHS Mar 2, 2009 13:30 8 NA 18 NA 10 NA 5.4 NA 7.9 NA 58 NA
TerrHSHoumaJHS Mar 2, 2009 13:07 6 17 NA 4 NA 6 NA 8.2 NA 47 NA
TerrHSHoumaJHS Mar 2, 2009 13:12 9 NA 15 NA 4 NA 5 NA 7.8 NA 35 NA
TerrHSHoumaJHS Mar 2, 2009 13:08 10 NA 19 NA 5 NA 4.2 NA 7.9 NA 4.2 NA
TerrHSHoumaJHS Mar 2, 2009 1300 2 NA 16 NA 20 NA 6.4 NA 8.0 NA 48 NA
TerrHSHoumaJHS Mar 2, 2009 13:08 3 NA 16 1.7 NA 5.3 NA 7.9 NA 40.1 NA
TerrHSHoumaJHS Mar 2, 2009 13:07 5 18 NA 1.005 NA 5 NA 7.9 NA 33 NA
TerrHSHoumaJHS Mar 2, 2009 1:09 7 56 NA 4 NA 8.2 NA 7.9 NA 8.2 NA
TerrHSHoumaJHS Mar 2, 2009 13:16 4 NA 17 NA 4 NA 6 NA 7.8 NA 40 NA
TerrHSHoumaJHS Mar 2, 2009 9:45 1 15 14 5 5 NA 6.8 7.7 7.9 NA 60 NA
TerrHSHoumaJHS Mar 2, 2009 9:30 2 NA 14 NA 4 NA 6 NA 7.8 NA 60 NA
TerrHSHoumaJHS Jan 30, 2009 09:50 4 14 NA 5 NA 21 NA NA NA 43
TerrHSHoumaJHS Mar 2, 2009 9:27 5 NA 15 NA 5 NA 7 NA 7.8 NA 60 NA
TerrHSHoumaJHS Jan 30, 2009 13:10 9 NA 14 NA 1.3 NA 7 NA 7.8 NA 36 NA
TerrHSHoumaJHS Mar 2, 2009 9:27 3 14 NA 5 NA 4.2 NA 8 NA 6.0
TerrHSHoumaJHS Jan 30, 2009 9:36 7 NA 15 NA 5 NA 8.25 NA 8.2 NA 42.4 NA
TerrHSHoumaJHS Jan 30, 2009 9:27 9 13 15 50 NA 7 NA 7.9 8.2 48 NA NA
TerrHSHoumaJHS Jan 30, 2008 9:43 3 NA 14 NA 5 NA 6 NA 7.8 NA 41.3 NA
TerrHSHoumaJHS Jan 2, 2009 09:30 4 NA 14 NA 5 NA 4.1 NA 7.7 NA 60 NA
TerrHSHoumaJHS Mar 2, 2009 9:29 7 NA 14 NA 5 NA 4.2 NA 8.0 NA 60 NA
TerrHSHoumaJHS Mar 2, 2009 9:27 6 NA 14 NA 5 NA 4.1 NA 8 NA 45 NA
TerrHSHoumaJHS Mar 12, 2009 9:27 10 NA 15 NA 4 NA 6.3 NA 8.0 NA 60 NA
TerrHSHoumaJHS Mar 2, 2009 9:27 9 NA 15 NA 5 NA 4.4 NA 7.8 NA 55 NA
TerrHSHoumaJHS Jan 30, 2009 9:27 10 NA 15 NA 5 NA 7.2 NA 8.0 NA 46 NA
TerrHSHoumaJHS Jan 30, 2009 9;29 6 NA 17 NA 3 NA 7 NA 7.9 NA 34 NA
TerrHSHoumaJHS Mar 2, 2009 9:27 8 NA 15C NA 5 NA 7 NA 8.1 NA 48 NA
TerrHSHoumaJHS Apr 8, 2009 11:01 10 NA 20 NA 0 NA 2.4 NA 7.5 NA 38 NA
TerrHSHoumaJHS Apr 8, 2009 11:01 7 NA 20 NA 0 NA 3.2 NA 7.7 NA 39 NA
TerrHSHoumaJHS Apr 8, 2009 11;01 5 NA 76 NA 0 NA 4.4 NA 7.5 NA 35.4 NA
TerrHSHoumaJHS Apr 8, 2009 11:01 9 NA 21 NA 0 NA 3 NA 8.0 NA 25.5 NA
TerrHSHoumaJHS Apr 8, 2009 11:01 9 NA 21 NA 0 NA 3 NA 8.0 NA 25.5 NA
TerrHSHoumaJHS Apr 8, 2009 11:01 4 NA 20 NA 2 NA 2.8 NA 7.5 NA 46 NA
TerrHSHoumaJHS Apr 8, 2009 7:51 NA NA 18 NA 1.005 NA 3.2 NA 8.2 NA 57 NA
TerrHSHoumaJHS Apr 8, 2009 7:51 9 NA 17 C NA 5 NA 2.8 NA 7.6 NA 42 NA
TerrHSHoumaJHS Apr 8, 2009 07:51 8 NA 18 NA 8 NA 2 NA 8.2 NA 59 NA
TerrHSHoumaJHS Apr 8, 2009 9:27 3 19 NA 6 NA 2 NA 7.7 NA 40 NA NA
TerrHSHoumaJHS Apr 8, 2009 09:27 4 19 NA 5 NA 3.5 NA 7.5 NA 42
TerrHSHoumaJHS Apr 8, 2009 09:27 5 NA 19 NA 5 NA 3 NA 7.6 NA 36.8 NA
TerrHSHoumaJHS Apr 8, 2009 9:29 1 NA NA NA NA NA NA NA NA NA NA NA
TerrHSHoumaJHS Apr 8, 2009 9:29 1 18 NA 5 NA 5.8 NA 7.4 NA 44.2 NA
TerrHSHoumaJHS Apr 8, 2009 9:27 2 NA 19 NA 5 NA 2.8 NA 7.9 NA 37.2 NA
TerrHSHoumaJHS Apr 8, 2009 9:27 10 NA 18 NA 0 NA 2.2 NA 8.7 NA 42 NA
TerrHSHoumaJHS Apr 8, 2009 09:27 7 NA 19 NA 4 NA 4.8 NA 8.2 NA 42 NA
TerrHSHoumaJHS Apr 8, 2009 09:27 6NA NA 18 NA 4 NA 3.4 NA 7.8 NA 37.2 NA
TerrHSHoumaJHS Apr 8, 2009 9:27 3 NA 21 NA 6 NA 2.2 NA 7.8 NA 40 NA
TerrHSHoumaJHS Apr 8, 2009 9:27 4 NA 19 NA 5 NA 3.5 NA 7.5 NA 42 NA
TerrHSHoumaJHS Apr 8, 2009 9:27 5 NA 19 NA 5 NA 3 NA 7.6 NA 36.8 NA
TerrHSHoumaJHS Apr 8, 2009 9:27 8 NA 19 NA 5 NA 4 NA 8 NA 37.2 NA
TerrHSHoumaJHS Apr 8, 2009 9:27 9 NA 19 NA 5 NA 3 NA 7.5 NA 41.5 NA
TerrHSHoumaJHS Jan 1, 1900 9:40 6 NA 20 NA .4 NA 4.0 NA 8.2 NA 31cm. NA
TerrHSHoumaJHS Apr 8, 2009 11:04 1 NA 22 NA 1 NA 3.4 NA 7.3 NA 36 NA
TerrHSHoumaJHS Apr 8, 2009 11:04 1 NA 22 NA 1 NA 3.4 NA 7.3 NA 36 NA
TerrHSHoumaJHS Apr 8, 2009 1305 3 NA 19 NA 0 NA 3.2 NA 7.7 NA NA NA
TerrHSHoumaJHS Apr 8, 2009 7:51 1 NA 18 NA 8 NA 4 NA 7.5 NA 43.6 NA
TerrHSHoumaJHS Apr 8, 2009 7:51 2 NA 18 NA 5 NA 3.5 NA 8.2 NA 46 NA
TerrHSHoumaJHS Apr 8, 2009 7:51 3 NA 60 NA 8 NA 4.2 NA 7.8 NA 60 NA
TerrHSHoumaJHS Apr 8, 2009 7:51 4 NA 19 NA 9 NA 4.2 NA 8 NA 43 NA
TerrHSHoumaJHS Apr 8, 2009 7:51 5 NA 18 NA 0 NA 3 NA 8 NA 47 NA
TerrHSHoumaJHS Apr 8, 2009 7:51 7 NA 60 NA 0 NA 5.1 NA 8.5 NA 40 NA
TerrHSHoumaJHS Apr 8, 2009 7:51 6 NA 19 NA 0 NA 3 NA 8.1 NA 46 NA
TerrHSHoumaJHS Apr 8, 2009 6 NA 19 NA 0 NA 3.4 NA 7.3 NA 34.8 NA
TerrHSHoumaJHS Apr 8, 2009 11:01 NA NA 20 NA 2.2 NA 2.8 NA 7.5 NA 42.6 NA
TerrHSHoumaJHS Apr 8, 2009 11:01 3 NA 20 NA 0 NA 2.4 NA 7.5 NA 43 NA
TerrHSHoumaJHS Apr 8, 2009 11:01 8 NA 19 NA 0 NA 3.8 NA 707 NA 44 NA
TerrHSHoumaJHS Apr 8, 2009 11:01 1 NA 20 NA 0 NA 4.0 NA 7.2 NA 47.5
TerrHSHoumaJHS Apr 8, 2009 13:05 NA NA 20 NA 0 NA 5 NA 7.5 NA 34 NA
TerrHSHoumaJHS Jun 8, 2009 13:05 5 NA 20 NA 2 NA 3 NA 7.6 NA 31 NA
TerrHSHoumaJHS Apr 8, 2009 13 05 6 NA 23 NA 1 NA 5 NA 7.9 NA 35 NA
TerrHSHoumaJHS Apr 8, 2009 13:05 7 NA 20 NA NA NA NA NA NA NA NA NA
TerrHSHoumaJHS Apr 8, 2009 13:05 7 NA 20 NA 2 NA 4.2 NA 7.8 NA 44 NA
TerrHSHoumaJHS Apr 8, 2009 13:05 7 NA 20 NA 2 NA 4.2 NA 7.8 NA 44 NA
TerrHSHoumaJHS Apr 8, 2009 13:05 8 NA 22 NA 0 NA 5 NA 7.8 NA 58 NA
TerrHSHoumaJHS Aug 4, 2009 13:05 9 NA 23 NA 0 NA 3.7 NA 7.5 NA 36 NA
TerrHSHoumaJHS Apr 8, 2009 13:05 10 20 NA 4 NA 5.2 NA 7.8 NA 34.3 NA
TerrHSHoumaJHS Nov 16, 2006 9:20 4 NA 17.4 NA NA NA 2 NA 8.2 NA 55 NA
TerrHSHoumaJHS Nov 16, 2006 9:10 2 NA 16.7 NA NA NA 5 NA 7.1 NA 40 NA
TerrHSHoumaJHS Nov 16, 2006 9:10 10 NA 16.1 NA NA NA 2.2 NA 7.6 NA 52.6 NA
TerrHSHoumaJHS Nov 16, 2006 9:10 7 NA 16.3 NA NA NA NA NA 7.1 NA NA NA
TerrHSHoumaJHS Nov 16, 2006 9:10 NA NA 16.4 NA NA NA 5.8 NA 7.4 NA 60 NA
TerrHSHoumaJHS Nov 16, 2006 9:10 9 NA 17.4 NA NA NA 2.7 NA 7.0 NA 55 NA
TerrHSHoumaJHS Nov 16, 2006 9:10 3 NA 19.1 NA NA NA 8 NA 8.7 NA 56 NA
TerrHSHoumaJHS Nov 16, 2006 9:10 5 NA 17 NA NA NA 3 NA 7 NA 60 NA
TerrHSHoumaJHS Nov 16, 2006 9:10 6 NA 16.7 NA NA NA 4.4 NA 7.5 NA 60 NA
TerrHSHoumaJHS Nov 16, 2006 9:10 1 NA 16.2 NA NA NA 3.4 NA 7.2 NA 59.1 NA
TerrHSHoumaJHS Nov 17, 2006 7:45 NA NA 15.3 NA 18 NA 8 NA 7.2 NA 56 NA
TerrHSHoumaJHS Nov 17, 2006 7;45 NA NA 15.2 NA 18 NA 5.8 NA 7.8 NA 57 NA
TerrHSHoumaJHS Nov 17, 2006 7:45 4 NA 16 NA 18.6 NA 5.9 NA 8.2 NA 60 NA
TerrHSHoumaJHS Nov 17, 2006 7:45 NA NA 15.8 NA 18.4 NA 2.9 NA 7.6 NA 55 NA
TerrHSHoumaJHS Nov 17, 2006 7:45 NA NA 25.9 NA 23 NA 3.6 NA 7.4 NA 50 NA
TerrHSHoumaJHS Nov 17, 2006 7:45 3 NA 15.2 NA 19 NA 2.1 NA 8.2 NA 32 NA
TerrHSHoumaJHS Nov 17, 2006 7:45 NA NA 16 NA 18 NA 3.5 NA 7.5 NA 60 NA
TerrHSHoumaJHS Nov 17, 2006 7:45 9 NA 15.5 NA 18.7 NA 2.4 NA 7 NA 57 NA
TerrHSHoumaJHS Nov 17, 2006 7:45 8 NA 16.5 NA 17 NA 7.5 NA 7.6 NA 56 NA
TerrHSHoumaJHS Nov 17, 2006 7:45 NA NA 15.6 NA 18 NA 2.0 NA 7.6 NA 50 NA
TerrHSHoumaJHS Oct 15, 2009 1 NA NA NA NA NA NA NA NA NA NA NA
TerrHSHoumaJHS Oct 15, 2009 11:30 8 NA 24 NA 0 NA 6 NA 7.6 NA 31.6 cm NA
TerrHSHoumaJHS Oct 16, 2009 1200 5 NA 26 NA NA NA 0.7 NA 7.7 NA 60 20
TerrHSHoumaJHS Oct 16, 2009 1132 7 NA 22.2 NA 0 NA 2.8 NA 7.9 NA 44 NA
TerrHSHoumaJHS Oct 15, 2009 1200 1 29 NA NA NA 0.9 NA NA NA 52 cm. NA
TerrHSHoumaJHS Oct 15, 2009 11;45 2 23.5 0 3.8 7.6 59
TerrHSHoumaJHS Oct 15, 2009 11:30 8 NA 29 NA 0 NA 6 NA 7.6 NA 39.2 cm NA
TerrHSHoumaJHS Oct 15, 2009 1140 7 NA 30 NA 0 NA 7.1 NA 7.8 NA 36cm NA
TerrHSHoumaJHS Oct 16, 2009 10 24 NA NA 30 NA 0 NA 1 NA 8.4 NA 46cm NA
TerrHSHoumaJHS Oct 15, 2009 1145 4 NA 29 NA NA NA 4.3 NA 7.9 NA 38
TerrHSHoumaJHS Oct 16, 2009 23:30 Douglas, Joanna, Allana NA 30 NA 0 NA 3.1 NA 7.7 NA 46.1 cm NA
TerrHSHoumaJHS Oct 16, 2009 1126 10 NA 27 NA NA NA .4 NA 7.6 NA 60 NA
TerrHSHoumaJHS Oct 15, 2009 1140 9 NA 28 NA 0 NA 1.25 NA 7.6 NA 42 cm NA
TerrHSHoumaJHS Oct 15, 2009 1135 5 NA 30 NA 0 NA 2.4 NA 7.9 NA 27cm NA
TerrHSHoumaJHS Oct 15, 2009 12:55 10 NA 31 NA 0 NA 1 NA 8 NA 60 NA
TerrHSHoumaJHS Oct 16, 2009 1140 4 NA 27 NA na NA 4.1 NA 7.9 NA 38
TerrHSHoumaJHS Oct 16, 2009 1116 9 NA 25 NA 0 NA 1.4 NA 7.3 NA 26.4 cm NA
TerrHSHoumaJHS Oct 16, 2009 1135 2 NA 20 NA 0 NA 2 NA 6.9 NA 59cm NA
TerrHSHoumaJHS Oct 15, 2009 11:30 3 NA 27 NA 0 NA 1 NA 8.2 NA 60cm NA
TerrHSHoumaJHS Oct 16, 2009 1140 4 NA 25 NA NA NA 4.1 NA 7.8 NA 50 NA
TerrHSHoumaJHS Oct 16, 2009 11:18 8 NA 24 NA 0 NA 2.7 NA 7.3 NA 31.6 NA
TerrHSHoumaJHS Oct 16, 2009 11:30 3 NA 25 NA 0 NA 2 mg/L NA NA NA NA NA
TerrHSHoumaJHS Oct 15, 2009 1330 6 NA 30 NA NA NA 1 NA 7.5 NA 40cm NA
TerrHSHoumaJHS Oct 15, 2009 1330 10 NA 30 NA NA NA 0.7 NA 7.3 NA 56 NA
TerrHSHoumaJHS Oct 16, 2009 1255 5 NA 22 NA NA NA 2 NA 8 NA 63 NA
TerrHSHoumaJHS Oct 15, 2009 1330 5 NA 28 NA 0 NA 1 NA 706 NA 63 cm NA
TerrHSHoumaJHS Oct 16, 2009 1300 6 NA 38 NA NA NA 1.2 NA 7.4 NA 54.1cm NA
TerrHSHoumaJHS Oct 15, 2009 NA NA 27 NA NA NA 1.8 NA 7.5 NA 48 NA
TerrHSHoumaJHS Oct 16, 2009 1310 3 NA 23 NA NA NA 3 NA 7.5 NA 51 NA
TerrHSHoumaJHS Oct 15, 2009 1320 4 NA 29 NA NA NA 6 NA 8.2 NA 59cm NA
TerrHSHoumaJHS Oct 16, 2009 1300 6 NA 38 NA NA NA 1.2 NA 7.4 NA 54.1cm NA
TerrHSHoumaJHS Oct 15, 2009 1349 2 NA 25 NA 0 NA .4 NA 6.9 NA 63 NA
TerrHSHoumaJHS Oct 15, 2009 1320 4 NA 29 NA NA NA 6 NA 8.2 NA 59cm NA
TerrHSHoumaJHS Oct 16, 2009 1255 4 NA 26 NA NA NA 4.1 NA 8.1 61 cm. NA
TerrHSHoumaJHS Oct 16, 2009 1300 10 NA 26 NA NA NA 0.5 NA 7.5 NA 58 NA
TerrHSHoumaJHS Oct 15, 2009 1326 8 NA 25 NA NA NA 4.2 NA NA NA 62 NA
TerrHSHoumaJHS Oct 16, 2009 1352 2 NA 21 NA 0 NA 2 NA 7 NA 63 NA
TerrHSHoumaJHS Oct 16, 2009 1305 7 NA 44 NA NA NA 2.1 NA 7.4 NA 60 NA
TerrHSHoumaJHS Oct 16, 2009 1255 8 NA 26 NA NA NA .9 NA 7.1 NA 38 NA
TerrHSHoumaJHS Oct 16, 2009 1255 8 NA 26 NA NA NA .9 NA 7.1 NA 38 NA
TerrHSHoumaJHS Oct 16, 2009 1300 9 NA 25 NA 0 NA 2 NA 7.3 NA 30 NA
TerrHSHoumaJHS Oct 16, 2009 1300 9 NA 25 NA 0 NA 2 NA 7.3 NA 30 NA
TerrHSHoumaJHS Oct 16, 2009 1300 1 NA 26 NA NA NA 1.8 NA 7.4 NA 55.2 NA
TerrHSHoumaJHS Oct 15, 2009 1300 9 NA 27 NA 0 NA 1 NA 7 NA 60 NA
TerrHSHoumaJHS Oct 16, 2009 1305 7 NA 44 NA NA NA 201 NA 7.4 NA 60 NA
TerrHSHoumaJHS Oct 28, 2009 13:29 5 NA 26 NA NA NA 1.4 NA 8.3 30 NA
TerrHSHoumaJHS Oct 15, 2009 13:20 4 NA 29 NA NA .6 8.2 59 cm NA
TerrHSHoumaJHS Oct 28, 2009 13:15 10 NA 22 NA NA NA 2.3 NA 8 38 NA
TerrHSHoumaJHS Oct 28, 2009 13:15 2 NA 17 NA 0 NA 2 NA 7.3 63 NA
TerrHSHoumaJHS Oct 16, 2009 12:55 4 NA 26 NA NA NA 4.1 NA 8.1 61cm NA
TerrHSHoumaJHS Oct 19, 2009 8;02 1 NA 19 NA NA NA 4 NA 7.4 NA NA
TerrHSHoumaJHS Oct 18, 2009 08:02 6 NA 19 NA NA NA NA NA NA NA NA
TerrHSHoumaJHS Oct 19, 2009 8:02 5 19.8 NA NA NA NA NA 7.9 NA NA NA
TerrHSHoumaJHS Oct 19, 2009 8:00 7 NA 18 NA 25 NA 5.2 NA 7.9 NA NA
TerrHSHoumaJHS Oct 18, 2009 08:02 6 NA 19 NA NA NA 6.6 NA 7.8 NA NA
TerrHSHoumaJHS Dec 1, 2009 8:02 10 NA 20 NA NA NA 6.3 NA 7.6 NA NA
TerrHSHoumaJHS Oct 19, 2009 8:02 8 NA 20 NA NA NA 6.4 NA 9.0 NA NA
TerrHSHoumaJHS Oct 19, 2009 8:02 5 NA 19 NA 0 NA 5 NA 7.7 NA NA
TerrHSHoumaJHS Dec 1, 2009 08:02 2 NA 19 NA NA NA 6 NA 7.8 NA NA
TerrHSHoumaJHS Oct 19, 2009 9:45 4 NA 22.2 NA NA NA 6.4 NA 8.1 NA NA
TerrHSHoumaJHS Oct 19, 2009 9:45 1 NA 19 NA 0 NA 3.2 NA 7.3
TerrHSHoumaJHS Oct 19, 2009 9:45 8 20 NA NA 5.2 NA 7.76 NA
TerrHSHoumaJHS Oct 19, 2009 9:45 7 NA 20 NA NA NA 5.8 NA 7.7 NA NA
TerrHSHoumaJHS Oct 19, 2009 09:45 5 NA 20 NA NA 3.8 NA 8.0 NA NA
TerrHSHoumaJHS Oct 16, 2009 09:45 NA NA 20 NA na NA 4.2 NA 7.8 NA NA
TerrHSHoumaJHS Oct 19, 2009 9:45 NA NA 20c NA NA 4.2 NA 7.7 NA NA
TerrHSHoumaJHS Oct 19, 2009 9:45 5 NA 19 C NA 50% NA 10mg/l NA 8,5 NA NA
TerrHSHoumaJHS Dec 2, 2009 10:29 7 18 20 15 12 7.3 7.1 8.4 8.4 25.4 135
TerrHSHoumaJHS Dec 2, 2009 10:29 NA 15 17 12 10 4.8 3.0 8.3 8.7 32 NA
TerrHSHoumaJHS Oct 19, 2009 9:45 10 61 NA 20 NA 3.2 NA 7.9 NA NA
TerrHSHoumaJHS Oct 19, 2009 10:24 9 21 NA NA 4.6 NA 8.1 NA NA
TerrHSHoumaJHS Oct 19, 2009 10:24 9 NA 20 NA NA NA 4.8 NA 7.6 NA NA
TerrHSHoumaJHS Oct 19, 2009 10:24 7 NA 20 NA NA NA 6.5 NA 7.6 NA NA
TerrHSHoumaJHS Oct 19, 2009 10:24 5 NA 20 NA NA NA 4 NA 7.8 NA NA
TerrHSHoumaJHS Oct 19, 2009 10:53 1 NA NA NA NA NA NA NA NA NA NA
TerrHSHoumaJHS Oct 19, 2009 10:24 4 NA 23 NA NA 2 NA 7.6 NA NA
TerrHSHoumaJHS Oct 19, 2009 10:24 4 NA 23 NA NA 2 NA 7.6 NA NA
TerrHSHoumaJHS Oct 19, 2009 10:53 1 NA 21 NA NA NA 3.8 NA 7.5 NA NA
TerrHSHoumaJHS Oct 19, 2009 10:54 2 NA 20 NA NA NA NA 7.6 NA NA
TerrHSHoumaJHS Feb 1, 2010 08:26 2 NA 8 NA NA NA NA NA 7.5 40.7cm NA
TerrHSHoumaJHS Feb 1, 2010 8:57 03 NA 5c NA NA NA NA NA 9.4 45.1cm NA
TerrHSHoumaJHS Feb 1, 2010 8:21 9 NA 11 NA NA NA NA NA 8.1 39 NA
TerrHSHoumaJHS Feb 1, 2010 820 7 NA -15 NA NA NA NA NA 8.1 53 cm NA
TerrHSHoumaJHS Feb 1, 2010 8:20 1 NA 12 NA NA NA NA 8.9 41.4 NA
TerrHSHoumaJHS Feb 1, 2010 08:26 5 NA 9 NA NA NA NA NA 8.3 10 cm NA
TerrHSHoumaJHS Feb 1, 2010 8:25 6 NA 12 NA NA NA NA NA 9.1 56.2 NA
TerrHSHoumaJHS Feb 1, 2010 8:20 4 NA 11 NA NA NA NA NA 7.0 47.2 NA
TerrHSHoumaJHS Feb 1, 2010 8:20 8 NA 11 NA NA NA NA NA 7.9 29.4 NA
TerrHSHoumaJHS Feb 1, 2010 8:58 10 NA 12 NA NA NA NA NA 7 40.17 NA
TerrHSHoumaJHS Feb 9, 2010 0856 5 NA 11 NA NA 8 NA 9 33 cm NA
TerrHSHoumaJHS Feb 9, 2010 8:30 3 NA 6 NA NA 6.7 NA 8.7 40.2 NA
TerrHSHoumaJHS Feb 9, 2010 0820 7 NA -10 NA NA NA 5.5 NA 8.0 35 cm NA
TerrHSHoumaJHS Feb 9, 2010 8:15 9 NA 13 NA NA NA 6.4 NA 8.1 37 NA
TerrHSHoumaJHS Jan 27, 2010 13:06 1 NA 16 NA 0 NA 6.4 NA 7.5 41 NA
TerrHSHoumaJHS Jan 28, 2010 13:08 3 NA 15 NA 0 NA 6.75 NA 0.6 30.5 mL NA
TerrHSHoumaJHS Jan 28, 2010 13:04 8 NA 15 NA 0 NA 5.5 NA 7.9 47.5 NA
TerrHSHoumaJHS Jan 28, 2010 13:05 9 NA 15 NA 0 NA 4.6 NA 7.8 40
TerrHSHoumaJHS Jan 28, 2010 13:08 7 NA 16 NA 0 NA 4.6 NA 8.3 46 NA
TerrHSHoumaJHS Jan 28, 2010 13:00 6 NA 16 NA 0 NA 4.5 NA 6.5 40 NA
TerrHSHoumaJHS Jan 28, 2010 13:15 4 NA 15 NA 0 NA 10 NA 7.5 35 NA
TerrHSHoumaJHS Jan 28, 2010 13:08 2 NA 14 NA 0 NA 5.2 NA 7.6 46 NA
TerrHSHoumaJHS Jan 28, 2010 13:20 5 NA 16 NA 0 NA 5.8 NA 7.7 5.5 NA
TerrHSHoumaJHS Jan 28, 2010 7:46 5 NA 11 NA 0 NA 4.1 NA 8.1 47.6 NA
TerrHSHoumaJHS Jan 28, 2010 7:46 NA NA 17 NA 0 NA 3.4 NA 8.5 33 NA
TerrHSHoumaJHS Jan 28, 2010 7:46 1 NA 15 NA 0 NA 4.3 NA 7.9 36 NA
TerrHSHoumaJHS Jan 28, 2010 7:46 NA NA 15 NA 0 NA 6 NA 7.7 40 NA
TerrHSHoumaJHS Jan 28, 2010 7:46 NA NA 14 NA 0 NA 6.7 NA 8.3 37.8 NA
TerrHSHoumaJHS Jan 28, 2010 7:46 NA NA 15 NA NA NA 5.5 NA 7.9 32 NA
TerrHSHoumaJHS Jan 28, 2010 7:46 5 NA 15 NA 0 NA 3 NA 7.0 46 NA
TerrHSHoumaJHS Jan 28, 2010 7:46 NA NA 15 NA 0 NA 3.5 NA 7.8 20 NA
TerrHSHoumaJHS Jan 28, 2010 7:46 6 NA 12 NA 0 NA 5.0 NA 7.8 20 NA
TerrHSHoumaJHS Jan 28, 2010 9:41 3 NA 16 NA 0 NA 6.6 NA 7.7 25
TerrHSHoumaJHS Jan 28, 2010 9:41 4 NA 34 NA 0 NA 4 NA 7.7 45
TerrHSHoumaJHS Jan 28, 2010 9:41 2 NA 20 NA 0 NA 4.2 NA 7.7 39 NA
TerrHSHoumaJHS Jan 28, 2010 9:41 5 NA 12 NA 0 NA 7.6 NA 7.6 34 NA
TerrHSHoumaJHS Jan 28, 2010 9:41 5 NA 12 NA 0 NA 7.6 NA 7.6 34 NA
TerrHSHoumaJHS Jan 28, 2010 NA NA 15 NA 3.2 NA 7.8 NA 3.2 35 NA
TerrHSHoumaJHS Jan 28, 2010 9:41 5 NA 13 NA NA NA 8.1 NA 7.8 8.1 NA
TerrHSHoumaJHS Jan 28, 2010 9:41 4 NA 15 NA 0 NA 9 NA 8 39 NA
TerrHSHoumaJHS Jan 28, 2010 09:41 3 NA 15 NA 0 NA 6.3 NA 8.5 58
TerrHSHoumaJHS Jan 28, 2010 09:41 1 NA 15 NA NA NA NA NA NA NA NA
TerrHSHoumaJHS Jan 28, 2010 9:41 4 NA 14 NA 0 NA 6.4 NA 7.8 44.2 NA
TerrHSHoumaJHS Feb 22, 2010 8:15 1 16 NA NA 2.8 NA 8.3 27.4 NA
TerrHSHoumaJHS Feb 22, 2010 8:11 2 NA 12 NA NA NA 5.8 NA 7.9 35.3 NA
TerrHSHoumaJHS Feb 22, 2010 08:11 5 NA 13 NA NA 25 NA 8.5 5.5 cm NA
TerrHSHoumaJHS Feb 22, 2010 0810 7 NA 10.5 NA NA NA NA NA 8 30.4 cm NA
TerrHSHoumaJHS Feb 9, 2010 8:15 1 NA 15 NA NA 6.2 NA 8.5 36.8 NA
TerrHSHoumaJHS Feb 22, 2010 8:00 4 NA 14 NA NA 5.3 NA 7 38.1 NA
TerrHSHoumaJHS Feb 22, 2010 8:52 6 NA 23 NA NA NA 4 NA 8.5 43 NA
TerrHSHoumaJHS Feb 22, 2010 8:10 3 NA 9 NA NA NA 6 NA 8.2 30 NA
TerrHSHoumaJHS Feb 22, 2010 8:02 9 NA 15 NA NA 6.2 NA 8.2 33 NA
TerrHSHoumaJHS Feb 9, 2010 8 NA 13 NA NA NA 5.4 NA 8.0 33.6 CM. NA
TerrHSHoumaJHS Feb 22, 2010 8 NA 14 NA NA NA 6.1 NA 7.9 42CM. NA
TerrHSHoumaJHS Feb 22, 2010 9:32 1 NA 17 NA NA NA 7.8 NA 7.8 36 NA
TerrHSHoumaJHS Feb 22, 2010 10;30 10 NA 17 NA NA 4 NA 8.3 42.8cm NA
TerrHSHoumaJHS Feb 22, 2010 10:30 2 NA 13 NA NA NA 5 NA 7.5 44 NA
TerrHSHoumaJHS Feb 22, 2010 10:00 9 16 16 NA NA 4 4 7.9 7.9 38.3 NA
TerrHSHoumaJHS Feb 22, 2010 10:37 3 10 NA NA NA 7.2 NA 7.7 28.1 NA
TerrHSHoumaJHS Feb 22, 2010 9:40 7 NA 16 NA NA NA 4.4 NA 8.1 38.6 NA
TerrHSHoumaJHS Jan 1, 1900 5 13 NA NA 7.8 NA 7.9 37.2 NA
TerrHSHoumaJHS Feb 20, 2010 11:20 6 NA 18 NA NA NA 6.2 NA 8.4 26.1 NA
TerrHSHoumaJHS Feb 22, 2010 1000 8 15 NA NA NA 5.4 NA 7.7 NA 31 NA
TerrHSHoumaJHS Mar 1, 2010 7:50 3 NA 6 NA NA NA 5.7 NA 8.2 44. NA
TerrHSHoumaJHS Mar 1, 2010 8:00 4 NA 13 NA NA 5.0 NA 7.0 48 NA
TerrHSHoumaJHS Mar 1, 2010 8 NA 12 NA NA NA 6.4 NA 8.0 49.2 NA
TerrHSHoumaJHS Jan 1, 1900 0800 2 NA 10 NA NA NA 5.8 NA 7.8 43.4 NA
TerrHSHoumaJHS Mar 1, 2010 0750 7 NA 8 NA NA NA 4.5 NA 8 51.5 cm NA
TerrHSHoumaJHS Mar 1, 2010 8:00 1 NA 13.5 NA NA 4.4 NA 8.2 53 NA
TerrHSHoumaJHS Mar 1, 2010 8:12 NA NA NA NA NA NA NA NA NA NA
TerrHSHoumaJHS Mar 1, 2010 7:55 6 NA 15 NA NA NA 6 NA 8.5 47 NA
TerrHSHoumaJHS Mar 1, 2010 07:56 5 NA 13 NA NA NA 5.2 NA 8.4 40.2 NA
TerrHSHoumaJHS Mar 1, 2010 8:12 9 NA 13 NA NA NA 6.6 NA 8.1 46.2 NA
TerrHSHoumaJHS Mar 1, 2010 NA 14 NA 4 NA NA 8.1 NA 38.1 NA
TerrHSHoumaJHS Mar 12, 2010 7:42 8 NA 20 NA 7 NA 5.4 NA 8.1 50 NA
TerrHSHoumaJHS Mar 12, 2010 6 NA 18 NA 2 NA NA 7.7 NA NA
TerrHSHoumaJHS Mar 12, 2010 8:15 NA NA 18 NA 2 NA 4.2 NA 7.7 53 NA
TerrHSHoumaJHS Mar 12, 2010 8:15 NA NA 18 NA 2 NA 4.2 NA 7.7 53 NA
TerrHSHoumaJHS Mar 12, 2010 7:42 5 NA 19 NA 1.5 NA 4.2 NA 7.8 55 NA
TerrHSHoumaJHS Mar 12, 2010 7:42 3 NA 20 NA 2 NA 6.5 NA 8.1 48 NA
TerrHSHoumaJHS Mar 12, 2010 8:15 2 NA 18 NA 0 NA 2.4 NA 8.6 39
TerrHSHoumaJHS Mar 12, 2010 7:42 1 20 NA 0 NA 3.4 NA 7.0 35 NA
TerrHSHoumaJHS Mar 12, 2010 7:42 4 NA 57 NA NA NA 4 NA 7.9 40 NA
TerrHSHoumaJHS Mar 12, 2010 7:42 9 NA 19 NA 2 NA 4.1 NA 8.2 47 NA
TerrHSHoumaJHS Mar 12, 2010 7:42 7 NA 15.3 NA 0 NA 4.8 NA 7.0 5.9 NA
TerrHSHoumaJHS Mar 12, 2010 9:40 3 NA 20 NA 0 NA 5.4 NA 8 33
TerrHSHoumaJHS Mar 12, 2010 9:40 1 NA 20 NA 3 NA 3 NA 7.5 47
TerrHSHoumaJHS Mar 12, 2010 9:50 NA NA 21 NA NA NA 3.4 NA 6.9 55.3 NA
TerrHSHoumaJHS Mar 12, 2010 9:50 NA NA 21 NA NA NA 3.4 NA 6.9 55.3 NA
TerrHSHoumaJHS Mar 12, 2010 9:40 NA N/A 22 NA 0 NA 4.4 NA 7.5 53.3 NA
TerrHSHoumaJHS Mar 12, 2010 9:40 2 NA 20 NA 2 NA 4.8 NA 8 39.9 NA
TerrHSHoumaJHS Mar 12, 2010 9:40 2 NA 20 NA 2 NA 4.8 NA 8 39.9 NA
TerrHSHoumaJHS Mar 12, 2010 9:40 5 NA 20 NA 2 NA 4.8 NA 7.6 33.9 NA
TerrHSHoumaJHS Mar 12, 2010 9:40 4 NA 19 NA 2 NA 5 NA 8.0 38 NA
TerrHSHoumaJHS Mar 12, 2010 9:45 5 NA 20 NA 3 NA 4.8 NA 7.5 4.2 NA
TerrHSHoumaJHS Mar 12, 2010 1 NA 19 C NA 2 NA 5 NA 7.7 36
TerrHSHoumaJHS Mar 12, 2010 9:40 3 NA 22 NA 1 NA 5 NA 7.7 38 NA
TerrHSHoumaJHS Mar 12, 2010 13:10 1 NA 21 NA 0 NA 5.7 NA 7.4 49.1 NA
TerrHSHoumaJHS Mar 12, 2010 13:10 4 NA 24 NA 0 NA 5 NA 7.7 57 NA
TerrHSHoumaJHS Mar 12, 2010 1308 10 NA 20 NA 0 NA 4.5 NA 8.6 60 NA
TerrHSHoumaJHS Mar 12, 2010 13:07 6 NA 20 NA 0 NA 4.2 NA 7.8 50 NA
TerrHSHoumaJHS Mar 12, 2010 13:10 2 NA 20 NA 0 NA 4.6 NA 7.9 47.2 NA
TerrHSHoumaJHS Mar 12, 2010 13:03 8 NA 21 NA 0 NA 37 NA 7.7 54.5 NA
TerrHSHoumaJHS Mar 12, 2010 14:10 5 NA 22 NA NA NA 8.1 NA 7.8 43.1 NA
TerrHSHoumaJHS Mar 12, 2010 7:42 6 NA 18 NA 1.5 NA 4.1 NA 7.7 43.4 NA
TerrHSHoumaJHS Mar 12, 2010 0742 8 NA 18 NA 1.5 NA 6.6 NA 7.8 53 NA
TerrHSHoumaJHS Mar 12, 2010 7:50 3 18 NA 1.5 NA 5.2 NA 7.8 54 NA
TerrHSHoumaJHS Mar 12, 2010 7:42 4 NA 14 NA 4 NA 4.4 NA 7.8 51
TerrHSHoumaJHS Mar 12, 2010 7;44 9 NA 18 NA 4 NA 6 NA 7.9 47.4 NA
TerrHSHoumaJHS Mar 12, 2010 7:42 7 NA 10.2 NA 0 NA 5.4 NA 8.2 4.6 cm NA
TerrHSHoumaJHS Mar 12, 2010 7:42 2 NA 22 NA 5 NA 5.2 NA 7.6 55.6 NA
TerrHSHoumaJHS Mar 12, 2010 5 NA 19 NA 5 NA 5 NA 6.8 49 NA
TerrHSHoumaJHS Mar 12, 2010 5 NA 19 NA 5 NA 5 NA 6.8 49 NA
TerrHSHoumaJHS Mar 12, 2010 5 NA 19 NA 5 NA 5 NA 6.8 49 NA
TerrHSHoumaJHS Mar 12, 2010 5 NA 19 NA 5 NA 5 NA 6.8 49 NA
TerrHSHoumaJHS Mar 12, 2010 07:42 1 NA 18 NA 1.0 NA 4.6 NA 9.1 49 NA
TerrHSHoumaJHS Apr 16, 2010 7:45 4 NA 25 NA 0 NA 4.2 NA 7.9 35 NA
TerrHSHoumaJHS Apr 16, 2010 7:45 NA 25 NA NA 5 7.7 40 NA
TerrHSHoumaJHS Apr 16, 2010 745 10 NA 22 NA 0 NA 4 NA 8.4 28.3 NA
TerrHSHoumaJHS Apr 16, 2010 7:45 2 NA 23 NA NA NA 36 NA 7.9 22 NA
TerrHSHoumaJHS Apr 16, 2010 7:45 NA NA 20 NA 0 NA 5 NA 7.8 22 NA
TerrHSHoumaJHS Apr 16, 2010 7:45 NA NA 22 NA 0 NA 4.4 NA 8.2 36 NA
TerrHSHoumaJHS Apr 16, 2010 7:45 NA NA 24 NA 0 NA 4.5 NA 8.1 35 NA
TerrHSHoumaJHS Apr 16, 2010 7:45 5 NA 21 NA 0 NA 4 NA 8 35.8 NA
TerrHSHoumaJHS Apr 16, 2010 7:45 7 NA 75 NA 0 NA 4.1 NA 2.2 NA
TerrHSHoumaJHS Apr 16, 2010 7:45 7 NA 75 NA 0 NA 4.1 NA 2.2 NA
TerrHSHoumaJHS Apr 16, 2010 07 NA NA NA NA NA NA NA NA NA NA NA
TerrHSHoumaJHS Apr 16, 2010 07:45 1 25 NA 0 NA 3.5 NA 8.2 30.6 NA
TerrHSHoumaJHS Apr 16, 2010 10:00 2 NA 75 NA 0 NA 3.1 NA 6.7 33 NA
TerrHSHoumaJHS Apr 16, 2010 NA NA 250 NA 2 NA 3.1 NA 7.8 35 NA
TerrHSHoumaJHS Apr 16, 2010 NA NA 250 NA 2 NA 3.1 NA 7.8 35 NA
TerrHSHoumaJHS Apr 16, 2010 10:00 4 NA 22 NA 0 NA 4 NA 8.4 36.4 NA
TerrHSHoumaJHS Apr 16, 2010 10:00 3 NA 24C NA 0 NA 6 NA 7.6 31 NA
TerrHSHoumaJHS Apr 16, 2010 10:00 5 NA 24 NA 1 NA 3 NA 8 34 NA
TerrHSHoumaJHS Apr 16, 2010 745 10 NA 24 NA 0 NA 3 NA 6.7 32 NA
TerrHSHoumaJHS Apr 16, 2010 7:45 9 NA 21 NA 0 NA 3 NA 7.7 38 NA
TerrHSHoumaJHS Apr 16, 2010 7: 45 3 NA 22 NA 0 NA 4.3 NA 7.9 36.5 NA
TerrHSHoumaJHS Apr 16, 2010 7:45 4 25 NA NA 3.5 NA 7.7 44 NA
TerrHSHoumaJHS Apr 16, 2010 7:45 5 NA 25 NA NA NA 4 NA 7.7 35 NA
TerrHSHoumaJHS Apr 16, 2010 07:45 NA NA 22 NA 0 NA 7 NA NA 33.8 NA
TerrHSHoumaJHS Apr 16, 2010 10 5 NA 23 NA 2 NA 6.6 NA 7.8 35 NA
TerrHSHoumaJHS Apr 16, 2010 1000 1 27 C NA 25 NA 3.5 NA 8.1 25 NA
TerrHSHoumaJHS Apr 16, 2010 10:00 4 NA 23 NA 0 NA 5 NA 8.1 35
TerrHSHoumaJHS Apr 16, 2010 10:00 3 25 NA 0 NA 4 NA 7.6 25 NA
TerrHSHoumaJHS Apr 16, 2010 10:00 2 NA 23 NA 2 NA 4 NA 8 33 NA
TerrHSHoumaJHS Apr 16, 2010 1314 9 NA 28 NA 0 NA 4.5 NA 8 32.5 NA
TerrHSHoumaJHS Apr 16, 2010 13:11 2 NA 25 NA NA 4.4 NA 7.9 37
TerrHSHoumaJHS Apr 6, 2010 13:14 3 NA 24 NA NA NA 4 NA 7.8 31.3 mg NA
TerrHSHoumaJHS Apr 16, 2010 13:11 1 NA 28 NA NA 4.2 NA 7.7 33.2 NA
TerrHSHoumaJHS Apr 16, 2010 13:11 4 NA 29 NA 0 NA 34 NA 7.6 43 NA
TerrHSHoumaJHS Apr 16, 2010 7:45 7 NA 25 NA 0 NA 3.8 NA NA 32.8 cm NA
TerrHSHoumaJHS Apr 16, 2010 8:15 6 NA 20 NA 0 NA 2.4 NA 8.4 44 NA
TerrHSHoumaJHS Apr 16, 2010 7;45 2 NA 25 NA 0 NA 8.2 NA 7.7 43.2 NA
TerrHSHoumaJHS Apr 16, 2010 13:11 6 NA 25 NA 0 NA 5 NA 6.6 33 NA
TerrHSHoumaJHS Apr 16, 2010 13:11 5 NA 26 NA 3.9 NA 6.8 NA 7.9 30.3 NA
TerrHSHoumaJHS Apr 16, 2010 13:11 7 NA 25 NA 0 NA 5 NA 6.6 36 NA
TerrHSHoumaJHS Apr 16, 2010 1311 10 NA 24 NA 0 NA 5.5 NA 6.78 35 NA
TerrHSHoumaJHS Oct 1, 2010 13:30 1 NA 21 NA 0 NA 5.4 NA 7.9 NA NA
TerrHSHoumaJHS Oct 1, 2010 13:18 NA NA 28 NA NA NA NA NA NA NA NA
TerrHSHoumaJHS Nov 10, 2010 1300 1 NA 27 NA 0 NA 4.2 NA 7.4 55 NA
TerrHSHoumaJHS Oct 1, 2010 13:30 1 NA 21 NA 0 NA 5.4 NA 7.9 NA NA
TerrHSHoumaJHS Oct 22, 2010 1300 1 NA 25 NA NA 6 NA 8.1 30 NA
TerrHSHoumaJHS Oct 1, 2010 13:18 NA NA 28 NA 0 NA 4 NA 7.3 47.2 NA
TerrHSHoumaJHS Oct 1, 2010 1:20 8 NA 30 NA 0 NA 5.8 NA 7.6 26.1 NA
TerrHSHoumaJHS Oct 22, 2010 13:12 3 NA 21 NA 0 NA 2.6 NA 8.0 30.29 NA
TerrHSHoumaJHS Oct 1, 2010 13:00 2 NA 30 NA NA NA 4 NA 7.7 40.4 NA
TerrHSHoumaJHS Oct 22, 2010 13:00 NA 25 NA 0 NA 7 NA 8.2 NA 37 NA
TerrHSHoumaJHS Oct 22, 2010 13:20 NA NA 25 NA 0 NA 4.3 NA 6.6 47.6 NA
TerrHSHoumaJHS Oct 1, 2010 13:10 3 NA 27 NA 0 NA 4.2 NA 7.7 40 NA
TerrHSHoumaJHS Oct 1, 2010 1300 4 NA 29 NA 0 NA 6.4 NA 7.7 30 NA
TerrHSHoumaJHS Oct 1, 2010 13:10 NA NA 86 NA 0 NA 5.8 NA 6.5 NA NA
TerrHSHoumaJHS Oct 2, 2010 13:00 NA 28 NA 0 NA 5 NA 6.7 NA 40.19 NA
TerrHSHoumaJHS Oct 22, 2010 13:00 2 NA 25 NA 0 NA 6 NA 8.2 5.8 NA
TerrHSHoumaJHS Oct 22, 2010 1300 4 NA 23 NA 3 NA 8 NA 7.6 39 NA
TerrHSHoumaJHS Oct 1, 2010 07:54 NA NA 25 NA NA 3 NA 7.5 NA
TerrHSHoumaJHS Oct 1, 2010 07:54 5 NA 24 NA 0 NA 3 NA 7.4 NA NA
TerrHSHoumaJHS Oct 1, 2010 07:54 6 NA 23 NA 0 NA 20 NA 7.7 NA NA
TerrHSHoumaJHS Oct 1, 2010 07:54 NA NA 24 NA NA NA 5.4 NA 7.0 NA NA
TerrHSHoumaJHS Sep 1, 2010 08:43 3 NA 22 NA 0 NA 4 NA 7.7 NA NA
TerrHSHoumaJHS Oct 1, 2010 7;54 8 27 NA NA NA 9 NA 6.6 NA
TerrHSHoumaJHS Oct 1, 2010 07:54 4 NA 24 NA 0 NA 2.8 NA 7.7 NA NA
TerrHSHoumaJHS Oct 1, 2010 07:54 2 NA 25 NA NA NA 7 NA 7.5 NA NA
TerrHSHoumaJHS Dec 8, 2010 10:00 8 15 12C 11 11 NA NA 8.6 9 24 120 cm
TerrHSHoumaJHS Oct 1, 2010 07:54 9 NA 25 NA 1 NA 2.4 NA 8.2 NA NA
TerrHSHoumaJHS Oct 1, 2010 09:43 3 NA NA NA NA NA NA NA NA NA NA
TerrHSHoumaJHS Oct 1, 2010 9:40 6 NA 22 NA 0 NA 5 NA 8 NA
TerrHSHoumaJHS Oct 1, 2010 09:40 4 25 28 0 0 3.4 NA 8 NA NA
TerrHSHoumaJHS Oct 1, 2010 09:40 7 NA 25 NA 0 NA 6.4 NA 8 NA NA
TerrHSHoumaJHS Oct 1, 2010 09:41 9 NA 26 NA 0 NA 3.5 NA 8 NA NA
TerrHSHoumaJHS Oct 1, 2010 09:41 9 NA 26 NA 0 NA 3.5 NA 8 NA NA
TerrHSHoumaJHS Dec 9, 2010 09:40 8 NA 25 NA 0 NA 3 NA 8 NA NA
TerrHSHoumaJHS Oct 1, 2010 09:43 2 NA 27 NA 0 NA 4 NA 8 NA NA
TerrHSHoumaJHS Oct 1, 2010 09:43 3 NA 25 NA 0 NA 4.3 NA NA NA NA
TerrHSHoumaJHS Oct 1, 2010 09:43 1 NA 26 NA 0 NA 2 NA 8 NA NA
TerrHSHoumaJHS Oct 1, 2010 09:40 5 NA 25 NA 0 NA 3.4 NA 8 NA NA
TerrHSHoumaJHS Oct 1, 2010 12 NA NA NA NA NA NA NA NA NA NA NA
TerrHSHoumaJHS Oct 1, 2010 11:36 NA NA 25 NA 0 NA 22 NA 7.7 NA NA
TerrHSHoumaJHS Oct 1, 2010 11:36 3 NA 30 NA 0 NA 4 NA 7.5 N/A NA
TerrHSHoumaJHS Oct 1, 2010 11:36 1 NA 25 NA 0 NA 5.1 NA 7.6 NA NA
TerrHSHoumaJHS Oct 1, 2010 11:36 6 NA 25 NA 0 NA 7.78 NA 3.8 NA NA
TerrHSHoumaJHS Oct 1, 2010 23:36 2 NA 25 NA NA NA 3.4 NA 6.5 NA NA
TerrHSHoumaJHS Oct 1, 2010 11:37 7 NA 28 NA 0 NA 3.4 NA 7 NA NA
TerrHSHoumaJHS Oct 1, 2010 12:10 5 NA 25 NA 0 NA 3.6 NA 7.6
TerrHSHoumaJHS Oct 1, 2010 11:36 4 NA 26 NA 0 NA 2.4 NA 7.5 NA
TerrHSHoumaJHS Feb 17, 2011 10:12 1 19 21 12 15 5.4 7 8 6.1 24.4 120
TerrHSHoumaJHS Feb 9, 2011 NA 7 0 NA 6.4 NA 6.8 53
TerrHSHoumaJHS Feb 9, 2011 8:17 5 8 NA 0 NA 5.2 NA 8.8 52.6 NA
TerrHSHoumaJHS Feb 9, 2011 8:19 4 NA 9 NA 0 NA 8 NA 8.1 56 NA
TerrHSHoumaJHS Sep 9, 2011 8:00 1 NA 10 NA 0 NA 6 NA 7.7 50.7 NA
TerrHSHoumaJHS Feb 9, 2011 8:17 NA NA 11 NA 0 NA 6.2 NA 8.1 56 NA
TerrHSHoumaJHS Feb 9, 2011 NA 10 NA 0 NA 62 NA 8.1 45 NA
TerrHSHoumaJHS Feb 9, 2011 8:17 6 NA 10 NA 0 NA 5.75 NA 6.9 42 NA
TerrHSHoumaJHS Feb 9, 2011 NA 9 NA 0 NA 6.6 NA 6.9 44.8 NA
TerrHSHoumaJHS Feb 9, 2011 NA NA 10 NA 0 NA 8 NA 8.3 59.6 NA
TerrHSHoumaJHS Feb 9, 2011 9:45 3 NA 10 NA NA NA NA NA NA NA NA
TerrHSHoumaJHS Feb 9, 2011 9:45 3 NA 10 NA 0 NA 8.2 NA 8.6 52.3 NA
TerrHSHoumaJHS Feb 9, 2011 NA NA 10 NA 0 NA 6.5 NA 7.6 52.3 NA
TerrHSHoumaJHS Feb 9, 2011 NA NA 14 NA 0 NA 7.6 NA 8.2 54 NA
TerrHSHoumaJHS Feb 9, 2011 NA NA 14 NA 0 NA 7.6 NA 8.2 54 NA
TerrHSHoumaJHS Feb 9, 2011 NA NA 8 NA 0 NA 9.7 NA 9.7 56 NA
TerrHSHoumaJHS Feb 9, 2011 NA 10 0 6 6 7.0 NA NA
TerrHSHoumaJHS Feb 9, 2011 0945 NA NA 14 NA 0 NA 6 NA 8.0 50 NA
TerrHSHoumaJHS Feb 9, 2011 NA NA 13 NA 0 NA 6.8 NA 7.9 51.8 NA
TerrHSHoumaJHS Feb 9, 2011 13:10 6 NA 15 NA 0 NA 6 NA 6.9 49.4 NA
TerrHSHoumaJHS Feb 9, 2011 13:10 4 NA 10.4 NA 0 NA 6.5 NA 7.9 45 NA
TerrHSHoumaJHS Feb 9, 2011 13:10 7 NA 10 NA NA NA 10 NA 6.7 47 NA
TerrHSHoumaJHS Feb 9, 2011 1310 9 NA 10 NA NA NA 5 NA 7.9 4.558 NA
TerrHSHoumaJHS Feb 9, 2011 13:10 2 10 NA 0 NA 8 NA 7.8 40 NA
TerrHSHoumaJHS Feb 9, 2011 13:10 3 NA 9 NA 0 NA 8 NA 7.6 44.6 NA
TerrHSHoumaJHS Feb 9, 2011 1 NA 17 NA 0 NA 7 NA 7.8 55.4 NA
TerrHSHoumaJHS Mar 25, 2011 NA NA 28 NA 0 NA 5 NA 7.5 34.2 NA
TerrHSHoumaJHS Mar 25, 2011 NA NA 31 NA 0 NA 6 NA 7.9 74.8 NA
TerrHSHoumaJHS Mar 25, 2011 NA NA 25 C NA 0 NA 6 NA 7.7 30 NA
TerrHSHoumaJHS Mar 25, 2011 3 25 NA 0 NA 5 NA 7.8 26 NA
TerrHSHoumaJHS Mar 25, 2011 NA NA 25 C NA 0 NA 6 NA 7.7 30 NA
TerrHSHoumaJHS Mar 25, 2011 9:47 5 NA 25 NA 0 NA 5 NA NA 22 NA
TerrHSHoumaJHS Mar 25, 2011 9:45 NA NA 25 C NA 0 NA 4.8 NA 7.7 17cm NA
TerrHSHoumaJHS Mar 25, 2011 NA NA 25 NA 0 NA 5.4 NA 8.3 36 NA
TerrHSHoumaJHS Mar 25, 2011 9:46 8 NA 20 NA NA NA 4.9 NA 8.4 26.75 NA
TerrHSHoumaJHS Mar 25, 2011 9:45 9 NA 24 NA NA NA 1.4 NA 7.2 33 NA
TerrHSHoumaJHS Mar 25, 2011 13:10 1 23 NA 0 NA 5.6 NA 7.7 25.2 NA
TerrHSHoumaJHS Mar 25, 2011 13:10 2 NA 25 C NA 0 NA 6.5 NA 7.7 32 NA
TerrHSHoumaJHS Mar 24, 2011 13:15 9 NA 25 NA 0 NA 4 NA 8 26 NA
TerrHSHoumaJHS Mar 25, 2011 1:08 5 NA 21 NA 0 NA 4.3 NA 7.8 20 NA
TerrHSHoumaJHS Mar 25, 2011 6 NA 25 NA 0 NA 4 NA 6.9 30 NA
TerrHSHoumaJHS Mar 25, 2011 13:10 3 NA 24 NA 0 NA 5 NA 7.8 33 NA
TerrHSHoumaJHS Mar 25, 2011 13:10 10 NA 25 NA 0 NA 6 NA 7.4 28 NA
TerrHSHoumaJHS Mar 25, 2011 13:10 4 NA 25 NA 0 NA 7 NA 7.9 27.2 NA
TerrHSHoumaJHS Mar 25, 2011 8 NA NA NA NA NA NA NA NA NA NA
TerrHSHoumaJHS Mar 25, 2011 8:15 1 NA 20 NA 0 NA 3.2 NA 7.4 33 NA
TerrHSHoumaJHS Mar 25, 2011 8:15 4 23 NA 0 NA 3.2 NA 7.7 43 NA
TerrHSHoumaJHS Mar 25, 2011 NA NA 24 NA 0 NA 6.1 NA 7.6 33.1 NA
TerrHSHoumaJHS Mar 25, 2011 NA NA 20 NA 0 NA 3 NA 7.7 44 NA
TerrHSHoumaJHS Mar 25, 2011 NA NA 20 NA 0 NA 3 NA 7.7 44 NA
TerrHSHoumaJHS Mar 25, 2011 8:15 5 NA 23 NA 0 NA 3.4 NA 7.9 24.4 NA
TerrHSHoumaJHS Mar 25, 2011 NA NA 23 NA 0 NA 2 NA 8.2 38 NA
TerrHSHoumaJHS Mar 25, 2011 8:15 6 NA 21 NA 0 NA 4 NA 6.6 35.2 NA
TerrHSHoumaJHS Mar 25, 2011 NA 23 NA 7 NA 9.5 NA 7.7 NA
TerrHSHoumaJHS Mar 25, 2011 8:15 8 NA 23 NA 0 NA 8 NA 7.7 34.2 cm NA
TerrHSHoumaJHS Mar 25, 2011 NA 23 NA 7 NA 9.5 NA 7.7 NA
TerrHSHoumaJHS Apr 19, 2011 8:13 2 35 0 6.6 6.9 41.8
TerrHSHoumaJHS Apr 18, 2011 8:13 1 NA 35 NA 0 NA 2.1 NA 7.5 42.6
TerrHSHoumaJHS Apr 18, 2011 8:14 3 NA 21 NA 0 NA 3 NA 7.9 49 NA
TerrHSHoumaJHS Apr 18, 2011 8:16 Group 4 24 NA 0 NA 4 NA 8.0 43.8 NA
TerrHSHoumaJHS Apr 18, 2011 8:16 Group 4 24 NA 0 NA 4 NA 8.0 43.8 NA
TerrHSHoumaJHS Apr 18, 2011 8:15 5 NA 20 NA 0 NA 3.2 NA 7.8 37 NA
TerrHSHoumaJHS Apr 18, 2011 8:15 6 NA 24 NA 0 NA 4.2 NA 6.9 44.2 NA
TerrHSHoumaJHS Jan 1, 1900 NA 25 C NA 0 NA 6.4 NA 8.0 40.4 NA
TerrHSHoumaJHS Apr 18, 2011 7 NA 20 NA 20 NA 4 NA 8.4 40 NA
TerrHSHoumaJHS Apr 18, 2011 NA NA 23 NA 0 NA 5 NA 8.3 13 NA
TerrHSHoumaJHS Apr 18, 2011 NA NA 23 NA 0 NA 5 NA 8.3 13 NA
TerrHSHoumaJHS Apr 18, 2011 NA NA 22 NA 0 NA 6.4 NA 6.6 54.6 NA
TerrHSHoumaJHS Apr 18, 2011 4 NA 26 NA 0 NA 3 NA 8.3 52 NA
TerrHSHoumaJHS Apr 18, 2011 9:42 5 NA 20 NA 0 NA 6.4 NA 8.3 37.4 NA
TerrHSHoumaJHS Apr 18, 2011 9:42 3 NA 20 NA NA 6 NA 10.2 54 NA
TerrHSHoumaJHS Apr 18, 2011 9:42 NA NA 23 NA 0 NA 7.6 NA 7.8 49.3 NA
TerrHSHoumaJHS Apr 8, 2011 NA NA 27 NA 0 NA 42 NA 7.0 43.8 NA
TerrHSHoumaJHS Apr 18, 2011 10:42 8 NA 25 NA 20 NA 4 NA 7.4 26 NA
TerrHSHoumaJHS Apr 18, 2011 9 NA 20.3 NA 20 NA 3 NA 7.8 48 NA
TerrHSHoumaJHS Apr 18, 2011 NA 24 NA 0 NA NA NA 7.8 NA 49 NA
TerrHSHoumaJHS Apr 18, 2011 NA 24 NA 0 NA NA NA 7.8 NA 49 NA
TerrHSHoumaJHS Apr 18, 2011 13:10 1 NA 25 NA NA NA 7.4 NA 8.0 47 NA
TerrHSHoumaJHS Apr 18, 2011 13:10 NA NA 24C NA 0 NA 6.1 NA 7.9 5.2 NA
TerrHSHoumaJHS Apr 18, 2011 13:10 NA NA 24C NA 0 NA 6.1 NA 7.9 5.2 NA
TerrHSHoumaJHS Apr 18, 2011 13:10 4 NA 23 NA 0 NA 5.6 NA 8 52.2 NA
TerrHSHoumaJHS Apr 18, 2011 13:10 3 NA 24 NA 0 NA 3.4 NA 8.1 43 NA
TerrHSHoumaJHS Apr 19, 2011 1:10 5 NA 24 NA 0 NA 8 NA 7.3 40 NA
TerrHSHoumaJHS Apr 18, 2011 13:10 NA NA 22 NA 0 NA 5.5 NA 8.2 48.9 NA
TerrHSHoumaJHS Apr 18, 2011 NA NA 25 NA 0 NA 6 NA 6.8 55 NA
TerrHSHoumaJHS Apr 18, 2011 13:10 09 NA 25 NA NA 5.6 NA 7.7 36 NA
TerrHSHoumaJHS Apr 18, 2011 13:10 10 22 0 NA 5 NA 7.5 NA NA
TerrHSHoumaJHS Nov 11, 2011 13:07 1 NA 17 NA NA NA 4.2 NA 8.1 40.18 NA
TerrHSHoumaJHS Nov 11, 2011 1307 NA NA 17 NA 0 NA 5 NA 8.3 40 NA
TerrHSHoumaJHS Oct 7, 2011 13:04 1 NA 25 NA 0 NA 3 NA 7.3 NA NA
TerrHSHoumaJHS Nov 11, 2011 13:08 NA NA 17 NA 45 NA 37.4 NA 8.1 50 NA
TerrHSHoumaJHS Nov 11, 2011 13:07 NA 17 NA 0 NA 6 NA 8.3 4.3 NA
TerrHSHoumaJHS Oct 7, 2011 13:04 NA NA 25 NA 0 NA 7.2 NA 8.0 35 NA
TerrHSHoumaJHS Oct 7, 2011 13:04 1 NA 25 NA 0 NA 3 NA 7.3 45 NA
TerrHSHoumaJHS Nov 11, 2011 13:10 NA NA 17 NA 0 NA 4.3 NA 8.2 32.2 NA
TerrHSHoumaJHS Oct 7, 2011 1304 NA NA 26 NA 0 NA 5 NA 8.3 40.3 NA
TerrHSHoumaJHS Oct 7, 2011 13:04 NA NA 22 NA 0 NA 3.5 NA 7.8 45 NA
TerrHSHoumaJHS Oct 7, 2011 13:04 NA NA 25 NA 0 NA 4 NA 7.6 48.4 NA
TerrHSHoumaJHS Nov 11, 2011 13:08 NA NA 18 NA 0 NA 5 NA 8.7 40 NA
TerrHSHoumaJHS Oct 7, 2011 13:07 NA 25 0 4 8 NA
TerrHSHoumaJHS Oct 7, 2011 13:10 NA NA 17 NA 0/1000 NA 4.3 NA 8.2 NA NA
TerrHSHoumaJHS Nov 11, 2011 13:07 NA NA 15 NA 0 NA 5 NA 8 40 NA
TerrHSHoumaJHS Oct 7, 2011 13:04 NA NA 25 NA 0/1000 NA 9 NA 7.2 24
TerrHSHoumaJHS Jan 27, 2012 13:10 3 NA 17 NA 0 NA 5.2 NA 7.8 7.6 NA
TerrHSHoumaJHS Jan 27, 2012 13:14 4 NA 13 NA 0 NA 4.6 NA 7.5 27.8 NA
TerrHSHoumaJHS Jan 27, 2012 13:12 2 NA 16 NA 0 NA 7 NA 7.7 24.2 NA
TerrHSHoumaJHS Jan 27, 2012 13:10 6 NA 20 NA 0 NA 5 NA 6.5 20.4 NA
TerrHSHoumaJHS Jan 27, 2012 13:15 7 19 NA 0 NA NA 7.0 25 NA
TerrHSHoumaJHS Jan 27, 2012 13:15 9 NA 20 NA 0 NA 4.8 NA 7.3 26 NA
TerrHSHoumaJHS Jan 27, 2012 13:10 10 NA 15 NA 0 NA 3.5 NA 8.3 18.75 NA
TerrHSHoumaJHS Jan 1, 1900 13;12 7 NA 16 NA 0 NA 4 NA 7.6 32 NA
TerrHSHoumaJHS Jan 27, 2012 13:14 5 NA 20 NA 0 NA 4 NA 7.4 25 NA
TerrHSHoumaJHS Jan 27, 2012 13:10 8 NA 18 NA 0 NA 5.4 NA 7.6 26 NA
TerrHSHoumaJHS Jan 27, 2012 9:42 3 NA 17 NA NA NA NA NA NA NA NA
TerrHSHoumaJHS Jan 27, 2012 9:44 7 NA 18 NA 0 NA 6.6 NA 7.2 19 NA
TerrHSHoumaJHS Jan 27, 2012 8:42 9 NA 23 NA 0 NA 4.8 NA 7 29 NA
TerrHSHoumaJHS Jan 27, 2012 9:45 1 NA 16 NA 0 NA 3 NA 7.7 29 NA
TerrHSHoumaJHS Jan 27, 2012 9:44 10 NA 14 NA 0 NA 3.1 NA 7.9 25 NA
TerrHSHoumaJHS Jan 27, 2012 9:44 6 NA 19 NA 0 NA 4.4 NA 6.6 28 NA
TerrHSHoumaJHS Jan 27, 2012 09:44 5 NA 18 NA 0 NA 6 NA 7.5 28 NA
TerrHSHoumaJHS Jan 27, 2012 9:42 4 NA 19 NA 0 NA 4.5 NA 7.9 22 NA
TerrHSHoumaJHS Jan 27, 2012 9:42 8 NA 19 NA 0 NA 4 NA 7.6 25.1 NA
TerrHSHoumaJHS Jan 27, 2012 9:42 3 NA 17 NA 0 NA 3.8 NA 8.1 28.2 NA
TerrHSHoumaJHS Jan 24, 2012 9:50 2 NA 16 NA 21.4 NA 4 NA NA 22 NA
TerrHSHoumaJHS Jan 27, 2012 8:10 NA 18 NA 0 NA 7.1 NA 8.2 28.9 NA
TerrHSHoumaJHS Jan 27, 2012 08:11 9 19 16 0 0 4.7 7.2 7.2 7.2 22 NA
TerrHSHoumaJHS Jan 27, 2012 08:10 8 NA 20 NA 0 NA 5 NA 6.6 30 NA
TerrHSHoumaJHS Jan 27, 2012 08:23 10 12 NA 0 NA 3.6 NA 8.2 30 NA
TerrHSHoumaJHS Jan 27, 2012 8:10 8 NA 18 NA NA NA NA NA NA NA NA
TerrHSHoumaJHS Jan 27, 2012 08:13 1 18 0 NA 2.4 NA 8.1 20.81 NA
TerrHSHoumaJHS Jan 27, 2012 8:10 8 NA 18 NA 0 NA 2 NA 8.0 26.5 NA
TerrHSHoumaJHS Jan 27, 2012 8:12 3 NA 20 NA 0 NA 5 NA 8.3 21.9 NA
TerrHSHoumaJHS Jan 27, 2012 8:10 5 19 NA 0 NA 5 NA 7.9 24 NA
TerrHSHoumaJHS Jan 27, 2012 08:10 7 NA 18 NA 0 NA 3.6 NA 7.7 25 NA
TerrHSHoumaJHS Jan 27, 2012 08:10 2 16 15 NA 4.6 8.2 27 NA
TerrHSHoumaJHS Feb 3, 2012 11 NA NA NA NA NA NA NA NA NA NA NA
TerrHSHoumaJHS Feb 3, 2012 11:15 2 NA NA NA NA NA NA NA NA NA NA
TerrHSHoumaJHS Feb 3, 2012 11:15 8 NA 21 NA 0 NA NA NA NA 43.2 NA
TerrHSHoumaJHS Feb 3, 2012 11:15 NA NA 20 NA 0 NA 4.8 NA 8 37.5 NA
TerrHSHoumaJHS Feb 3, 2012 11:16 7 NA 25 NA 0 NA 9.3 NA 7.4 39 NA
TerrHSHoumaJHS Feb 3, 2012 11:15 5 NA 27 NA 0 NA 4 NA 8 36 NA
TerrHSHoumaJHS Feb 3, 2012 11:15 4 NA 21 NA 0 NA 3.6 NA 7.7 40
TerrHSHoumaJHS Feb 3, 2012 11:15 2 NA 19 NA 0.0 NA 4.2 NA 7.9 46.9 NA
TerrHSHoumaJHS Feb 3, 2012 11:19 9 21 NA 0 NA 7 NA 8 43 NA
TerrHSHoumaJHS Feb 3, 2012 11:15 6 NA 20 NA 0 NA 4 NA 6.6 54 NA
TerrHSHoumaJHS Feb 3, 2012 11;15 1 NA 17 NA 0 NA 3.8 NA 7.8 34.2 NA
TerrHSHoumaJHS Feb 3, 2012 11:15 7 N/A 16 NA 0 NA 6.4 NA 8.1 37 NA
TerrHSHoumaJHS Mar 16, 2012 9:40 9 NA 24 NA 0 NA 3.4 NA 7.5 38 NA
TerrHSHoumaJHS Mar 16, 2012 9:40 1 NA 21 NA 0 NA 3.1 NA 7.7 32.1 NA
TerrHSHoumaJHS Mar 16, 2012 9:40 2 NA 25 NA 0 NA 1 NA 7.5 33.2 NA
TerrHSHoumaJHS Mar 16, 2012 9:40 10 NA 25 NA NA NA 1 NA 7.8 25 NA
TerrHSHoumaJHS Mar 16, 2012 9:40 3 NA 30 NA 0 NA 2.8 NA 7.4 46.2 NA
TerrHSHoumaJHS Mar 16, 2012 9:40 6 NA 25 NA 0 NA 3.2 NA 6.5 45 NA
TerrHSHoumaJHS Mar 16, 2012 9:40 Group 7 NA 25 NA 0 NA 2 NA 7.8 31.6 NA
TerrHSHoumaJHS Mar 16, 2012 09:40 8 NA 23 NA 0 NA 4 NA 7.4 26.4 NA
TerrHSHoumaJHS Mar 16, 2012 09:40 5 NA 23 NA 0 NA 6.5 NA 7.6 40.45 NA
TerrHSHoumaJHS Mar 16, 2012 9:40 4 NA 26 NA 0 NA 7 NA 7.8 29 NA
TerrHSHoumaJHS Mar 16, 2012 NA NA 21 NA 0 NA 6 NA 7.2 36.2 NA
TerrHSHoumaJHS Mar 16, 2012 13:06 Group 1 NA 21 NA 0 NA 6 NA 7.2 36.2 NA
TerrHSHoumaJHS Mar 16, 2012 13:06 3 NA 25 NA 0 NA 6 NA 7.8 36.2 NA
TerrHSHoumaJHS Mar 16, 2012 1305 10 NA 20 NA 0 NA 3 NA 7.7 38 NA
TerrHSHoumaJHS Mar 16, 2012 NA NA 28 NA 0 NA 7 NA 7.8 20 NA
TerrHSHoumaJHS Mar 16, 2012 NA NA 26 NA 0 NA 5.8 NA 7.7 28.6
TerrHSHoumaJHS Mar 16, 2012 13:06 2 NA 24 NA 0 NA 7.2 NA 7.7 29.9 NA
TerrHSHoumaJHS Mar 16, 2012 13:10 8 NA 26 NA 0 NA NA NA NA NA NA
TerrHSHoumaJHS Mar 16, 2012 13:10 8 NA 26 NA 0 NA 6.4 NA 7.8 20 NA
TerrHSHoumaJHS Mar 16, 2012 13:06 7 NA 29 NA 1 NA 9 NA 7.5 38 NA
TerrHSHoumaJHS Mar 16, 2012 8:06 1 NA 20 NA 0 NA 1.5 NA 7.9 57 NA
TerrHSHoumaJHS Mar 16, 2012 8:06 NA NA 20 NA 0 NA 1.5 NA 8.0 57 NA
TerrHSHoumaJHS Mar 16, 2012 8:10 04 NA 25 NA 0 NA 4.2 mg NA 7.6 41 NA
TerrHSHoumaJHS Mar 16, 2012 8:06 NA NA 23 NA 0 NA 3.1 NA 7.8 44.4 NA
TerrHSHoumaJHS Mar 16, 2012 8:06 NA NA 23 NA 0 NA 3.1 NA 7.8 44.4 NA
TerrHSHoumaJHS Apr 16, 2012 NA NA 22 NA 0 NA 3.1 NA 7.4 34 NA
TerrHSHoumaJHS Mar 16, 2012 NA NA 23 NA 0 NA 3.5 NA 7.5 35 NA
TerrHSHoumaJHS Mar 16, 2012 NA NA 24 C NA 0 NA NA NA 7.7 29 Cm Na
TerrHSHoumaJHS Mar 16, 2012 NA NA 25 NA 0 NA 4 NA 7.6 34 NA
TerrHSHoumaJHS Mar 16, 2012 10:11 5 NA 26 NA 0 NA 5 NA 7.4 20.5 NA
TerrHSHoumaJHS Mar 16, 2012 11:00 6 25 NA 0 NA 4.2 NA 6.6 46.5 NA
TerrHSHoumaJHS Jan 1, 1900 NA NA 24 C NA 0 NA 1.2 NA 7.2 27.2 NA
TerrHSHoumaJHS Jan 1, 1900 8 28 NA 0 NA 6.5 NA 7.7 30.5 NA
TerrHSHoumaJHS Jan 1, 1900 11:13 9 NA 25 NA 0 NA 4.1 NA 7.5 45.2 na
TerrHSHoumaJHS Jan 1, 1900 11:11 10 NA 20 NA 0 NA 3.8 NA 7.8 43 NA
TerrHSHoumaJHS Jan 24, 2013 10:10 10 NA 16 NA NA 3 NA 7 NA NA
TerrHSHoumaJHS Jan 24, 2013 10:10 10 NA 16 NA NA 3 NA 7 NA NA
TerrHSHoumaJHS Jan 24, 2013 NA NA 14*C NA NA NA 2 NA 2
TerrHSHoumaJHS Jan 24, 2013 NA NA 14*C NA NA NA 2 NA 2
TerrHSHoumaJHS Jan 24, 2013 NA NA 14*C NA NA NA 2 NA 2
TerrHSHoumaJHS Jan 24, 2013 NA NA 15 NA 0 NA NA NA NA NA NA
TerrHSHoumaJHS Jan 24, 2013 NA NA 15 NA 0 NA 2 NA 8 NA NA
TerrHSHoumaJHS Jan 24, 2013 NA NA 15 NA 0 NA 2 NA 8 NA NA
TerrHSHoumaJHS Jan 24, 2013 6 NA 16 NA NA NA 1 NA NA NA NA
TerrHSHoumaJHS Jan 25, 2013 11:10 NA NA 17 NA NA NA 4.5 NA 7.3 37 NA
TerrHSHoumaJHS Jan 25, 2013 11:10 NA NA 19 NA NA NA 5.2 NA 7.1 36 NA
TerrHSHoumaJHS Jan 25, 2013 11;10 8 NA 18 NA NA NA 3 NA NA NA
TerrHSHoumaJHS Jan 25, 2013 11:10 NA NA 16 NA NA NA 2.6 NA 7.8 44 NA
TerrHSHoumaJHS Jan 25, 2013 11:10 6 NA 18 NA NA NA 1.5 NA 6.5 34.3 NA
TerrHSHoumaJHS Jan 25, 2013 11:10 5 NA 15 NA NA NA 4.2 NA 8 60 NA
TerrHSHoumaJHS Jan 25, 2013 11:09 10 NA 5 NA NA NA 1.4 NA 7.8 55 NA
TerrHSHoumaJHS Jan 25, 2013 11;10 8 NA 18 NA NA NA 3 NA 7.7 36.4 NA
TerrHSHoumaJHS Jan 25, 2013 11:10 2 NA 18 NA NA NA 2.4 NA 7.5 60ML NA
TerrHSHoumaJHS Jan 15, 2013 11:10 9 NA 17 NA NA 3.8 NA 7.8 43 NA
TerrHSHoumaJHS Jan 25, 2013 11:09 10 NA 5 NA NA NA 1.4 NA 7.8 55 NA
TerrHSHoumaJHS Nov 17, 2012 NA NA NA 13 NA NA NA NA NA 7.7 NA NA
TerrHSHoumaJHS Jan 17, 2013 NA NA 12 NA NA NA 3.1 NA 7.7 32 NA
TerrHSHoumaJHS Jan 17, 2013 1103 NA NA 12 NA NA NA 4 NA 7.3 27.3 NA
TerrHSHoumaJHS Jan 17, 2013 11:03 NA NA 10 NA NA NA 2.1 NA 7.9 35 NA
TerrHSHoumaJHS Jan 17, 2013 10 NA 13 NA 50 NA 7 NA 8.2 45 NA
TerrHSHoumaJHS Jan 17, 2013 NA NA 12 NA NA 5.6 NA 8.3 17 NA
TerrHSHoumaJHS Jan 24, 2013 11:20 NA 16 NA NA NA 2 NA 7.9 25.8 NA
TerrHSHoumaJHS Jan 24, 2013 11:57 NA 15 NA 0 NA 2.4 NA 7.8 53.4 NA
TerrHSHoumaJHS Jan 24, 2013 11:07 NA NA 16 NA NA NA 2.2 NA 8.5 40.4 NA
TerrHSHoumaJHS Jan 24, 2013 11;57 NA NA 15 NA 0 NA 3 NA 6.8 53 NA
TerrHSHoumaJHS Jan 24, 2013 11:57 NA NA 17 NA 0 NA 3 NA 7.8 23 NA
TerrHSHoumaJHS Jan 24, 2013 11;07 NA NA 15 NA NA NA 0 NA 7.7 30 NA
TerrHSHoumaJHS Jan 14, 2013 11:07 NA NA 17 NA 0 NA 1.4 NA 7.8 37 NA
TerrHSHoumaJHS Jan 1, 1900 11:37 NA NA 16 NA NA NA 1.5 NA 8.3 33.5 NA
TerrHSHoumaJHS Jan 1, 1900 NA NA 15 NA 0 NA 3 NA 7.9 45 NA
TerrHSHoumaJHS Sep 30, 2013 9:50 NA NA 25 NA 0 NA NA NA 7.0 46.8 NA
TerrHSHoumaJHS Sep 30, 2013 10:15 NA NA 18 NA 0 NA 2.1 NA 7.4 54.2 NA
TerrHSHoumaJHS Sep 30, 2013 9:51 NA NA 28 NA 2 NA 3.2 NA 7.5 42.2 NA
TerrHSHoumaJHS Sep 30, 2013 9:50 NA NA 28 NA 0 NA 2.2 NA 7.8 51 NA
TerrHSHoumaJHS Sep 30, 2013 9:56 NA NA 27 NA 0 NA 3.8 NA 7.8 57.3 NA
TerrHSHoumaJHS Sep 30, 2013 9:57 NA NA 27 NA 0 NA 3.2 NA 7.4 50 NA
TerrHSHoumaJHS Sep 30, 2013 9:53 NA NA 27 NA 0 NA 1.2 NA 7.3 35.3 NA
TerrHSHoumaJHS Sep 30, 2013 9:51 NA NA 20 NA 1 NA 4 NA 7.4 41.0 NA
TerrHSHoumaJHS Oct 28, 2013 NA NA 20 NA 0.3 NA 3.8 NA 7.8 36.1 NA
TerrHSHoumaJHS Oct 28, 2013 09:30 NA NA 22 NA 39.6 NA 2.0 NA 7.6 6 NA
TerrHSHoumaJHS Oct 28, 2013 09;36 NA NA 21 NA NA NA 4.2 NA 8.6 NA NA
TerrHSHoumaJHS Oct 28, 2013 NA NA 19 NA NA 2.8 NA 7.8 41.1 NA
TerrHSHoumaJHS Oct 28, 2013 09:31 NA NA 20 NA 1 NA 5.09 NA 7.5 34.2 NA
TerrHSHoumaJHS Oct 28, 2013 09:37 NA NA 22 NA 0.3 NA 22.6 NA 7.6 38.95 NA
TerrHSHoumaJHS Oct 25, 2013 NA NA 29 NA 0 NA 4.2 NA 8.6 15.0 NA
TerrHSHoumaJHS Oct 28, 2013 09:25 NA NA 19 NA 0 NA 5 NA 7.2 36.5 NA
TerrHSHoumaJHS Oct 25, 2013 10:31 NA NA 3 NA 4 NA 2 NA 7.8 47 NA
TerrHSHoumaJHS Oct 25, 2013 09:45 NA NA 23 NA 4 NA 2.4 NA 8.2 30.5 NA
TerrHSHoumaJHS Oct 25, 2013 09:46 NA NA 23 NA 5 NA 2.6 NA 7.7 35 NA
TerrHSHoumaJHS Jan 1, 1900 09:46 NA NA 16 NA 5 NA 2 NA 7.6 32.8 NA
TerrHSHoumaJHS Oct 25, 2013 09:49 NA NA 20 NA 4 NA 2.7 NA 7.6 3.49 NA
TerrHSHoumaJHS Oct 25, 2013 NA NA 20.5 NA 5 NA 3.4 NA 8.1 37.8 NA
TerrHSHoumaJHS Oct 25, 2013 NA NA 16 NA 4 NA 2.0 NA 7.0 47 NA
TerrHSHoumaJHS Oct 25, 2013 NA NA 20.15 NA 0.4 NA 3.4 NA 7.7 37 NA
TerrHSHoumaJHS Oct 25, 2013 13:36 NA NA 20 NA 4 NA 4 NA 7.7 37.4 NA
TerrHSHoumaJHS Oct 23, 2013 13:19 NA NA 23 NA 0 NA 4 NA 7.7 28.8 NA
TerrHSHoumaJHS Oct 25, 2013 13:20 NA NA 19 NA 0 NA 4 NA 6.9 22.1 NA
TerrHSHoumaJHS Oct 25, 2013 13:20 NA NA 24 NA 4 NA 38 NA 7.4 27 NA
TerrHSHoumaJHS Oct 25, 2013 NA NA 24 NA 4 NA 4.6 NA 7.8 10.5 NA
TerrHSHoumaJHS Oct 25, 2013 13:18 NA NA 11 NA 4 NA 4 NA 8.5 32 NA
TerrHSHoumaJHS Oct 25, 2013 13:25 NA NA 20 NA 4 NA 2.6 NA 7.4 18 NA
TerrHSHoumaJHS Oct 25, 2013 13:16 NA NA 22 NA 0 NA 4 NA 7.7 15 NA
TerrHSHoumaJHS Jan 8, 2015 NA 18 18 0 0 NA NA 7.8 7.8 NA 55cm
TerrHSHoumaJHS Mar 2, 2015 0820 1 NA 18 NA 0 NA 3.2 NA NA 44.2 NA
TerrHSHoumaJHS Mar 2, 2015 0820 3 NA 14 NA 0 NA 8 NA NA 35 NA
TerrHSHoumaJHS Mar 2, 2015 0820 4 NA 16 NA 0 NA 7 NA NA 45 NA
TerrHSHoumaJHS Mar 2, 2015 0820 5 NA 16 NA 0 NA 23 NA NA 45.6 NA
TerrHSHoumaJHS Mar 2, 2015 0820 6 NA 16 NA 0 NA 23 NA NA 45 NA
TerrHSHoumaJHS Mar 4, 2015 0820 5 NA 6 NA 0 NA 23 NA 7 42.6 NA
TerrHSHoumaJHS Mar 4, 2015 0820 3 NA 6 NA 0 NA 5 NA 7 47 NA
TerrHSHoumaJHS Mar 4, 2015 0820 1 NA 20 NA 0 NA 0 NA 7 25.3 NA
TerrHSHoumaJHS Mar 4, 2015 0820 2 NA 6 NA 0 NA 4.5 NA 7 35.8 NA
TerrHSHoumaJHS Mar 8, 2015 10:45 NA NA 20 NA NA NA 25 NA NA 73 NA
TerrHSHoumaJHS Mar 16, 2015 10:45 NA NA 22 NA 0 NA NA NA 60 NA
TerrHSHoumaJHS Mar 8, 2015 10:20 NA 10.7 0 NA 6 NA 7 51.2 NA
TerrHSHoumaJHS Mar 16, 2015 10:32 NA NA 23 NA 0 NA 6 NA 0 60 NA
TerrHSHoumaJHS Mar 16, 2015 9 NA 23 NA 0 NA 2 NA 7 43 NA
TerrHSHoumaJHS Mar 16, 2015 12:48 6 NA 25 NA 0 NA NA 7 58 NA
TerrHSHoumaJHS Mar 16, 2015 12:45 2 20 0 NA 5 7 54 NA
TerrHSHoumaJHS Aug 3, 2015 9:25 NA NA 34 NA 0 NA 2.6 NA 6.9 40.8 NA
TerrHSHoumaJHS Aug 3, 2015 9:24 NA NA 32 NA 0 NA 8.2 NA 3.2 43.8 NA
TerrHSHoumaJHS Oct 16, 2015 10:30 NA 22 0 NA 1.5 NA 8 NA 40 NA
TerrHSHoumaJHS Oct 16, 2015 10:23 10 NA 25 NA 0 NA 3 NA 8.4 33 NA
TerrHSHoumaJHS Nov 4, 2015 10:20 NA 11 NA 0 NA 0.8 NA 7.6 NA 25
TerrHSHoumaJHS Oct 16, 2015 10:30 NA NA 12 NA 0 NA 2.5 NA 8.0 42 NA
TerrHSHoumaJHS Oct 16, 2015 NA NA 25 NA 0 NA 20mL NA 8.3 45cm NA
TerrHSHoumaJHS Nov 4, 2015 22:22 1 NA NA NA 0 NA 3 NA 7.3 37.2 NA
TerrHSHoumaJHS Nov 4, 2015 10:20 NA NA 10 NA 0 NA 1.0 NA 7.6 36.2 200
TerrHSHoumaJHS Nov 4, 2015 NA 20 degrees C NA 0 NA 1mg/L NA 7.4 32.6 200 cm
TerrHSHoumaJHS Nov 4, 2015 NA NA 24 NA 0 NA 0.8 NA 7.8 37.2 NA
TerrHSHoumaJHS Nov 4, 2015 2 23 NA 0 NA 0.1 NA 7.3 48 200
TerrHSHoumaJHS Oct 16, 2015 8 NA 24 NA 0 NA 0.8 NA 7.4 49.4 NA
TerrHSHoumaJHS Oct 16, 2015 NA NA 25 degrees NA NA NA NA NA 7.5 NA NA
TerrHSHoumaJHS Oct 16, 2015 NA NA NA NA 0 NA 0. NA 7.6 37.6 NA
TerrHSHoumaJHS Oct 16, 2015 NA NA NA NA 0 NA 0.8 NA 7.6 37.6 NA
TerrHSHoumaJHS Nov 4, 2015 NA NA 25C NA 0 NA .9 NA 7.5 53 NA
TerrHSHoumaJHS Oct 16, 2015 13:46 NA NA 25 NA 0 NA .9 NA 7.9 53 inches NA
TerrHSHoumaJHS Oct 16, 2015 13:45 NA NA 25 C NA 0 NA 1.85 NA 7.9 49 NA
TerrHSHoumaJHS Oct 16, 2015 13:45 10 NA 12 NA NA NA 4.4 NA 7.6 46 NA
TerrHSHoumaJHS Nov 4, 2015 13:46 5 NA 10 NA 0 NA 0.6 NA 7.1 37.6 NA
TerrHSHoumaJHS Nov 4, 2015 13:42 NA NA 24 NA NA NA 0.5 NA 7.4 41 NA
TerrHSHoumaJHS Oct 16, 2015 13:46 NA NA 11 NA 0 NA 1.25 NA 7.6 41.1 NA
TerrHSHoumaJHS Nov 4, 2015 13:42 9 NA 17 NA NA NA 2.6 NA 7.2 42 NA
TerrHSHoumaJHS Oct 16, 2015 NA NA 24 NA NA NA 0.6 NA 7.7 47.3 NA
TerrHSHoumaJHS Nov 13, 2015 08:35 8 20 20 5 5 5 5 26.6 26.6 NA NA
TerrHSHoumaJHS Nov 13, 2015 8:37 7 NA 6 NA 5 NA 2.1 NA 7.7 7.6 NA
TerrHSHoumaJHS Nov 13, 2015 8:35 2 20 20 5 5 5 5 8.5 8.5 35
TerrHSHoumaJHS Nov 13, 2015 8:35 2 NA 6 NA 10 NA NA NA NA 25 NA
TerrHSHoumaJHS Oct 15, 2015 8:32 7 NA 23 NA NA NA 1.2 NA 57 NA NA
TerrHSHoumaJHS Oct 16, 2015 8:35 2 23 24 NA4 NA 28 28 NA NA 45 NA
TerrHSHoumaJHS Oct 16, 2015 08:36 8 24 NA NA NA 5 NA 8 NA 27.1 NA
TerrHSHoumaJHS Oct 16, 2015 8:40 2 NA NA NA NA NA NA NA NA 45 NA
TerrHSHoumaJHS Oct 15, 2015 8:32 1 NA 23 C NA 1.4 ppt NA 1.4 mL NA NA 26 cm NA
TerrHSHoumaJHS Oct 16, 2015 8:30 6 NA 23 c NA 5 NA 1.4 NA 8 26 NA
TerrHSHoumaJHS Nov 13, 2015 8:30 6 NA 23 NA 5 NA 1.5 NA 1 36.8 NA
TerrHSHoumaJHS Dec 15, 2015 1 NA 16 NA 4 NA 3.8 NA 8.4 32 NA
TerrHSHoumaJHS Dec 15, 2015 8:30 2 NA 18 NA 0 NA 3.2 NA 8.1 30.4 NA
TerrHSHoumaJHS Dec 15, 2015 7 NA 20 NA 0 NA 3.8 NA 7.9 43.9 NA
TerrHSHoumaJHS Dec 15, 2015 8:37 8 19 NA 5 NA 4.2 NA 8.2 20.8 NA
TerrHSHoumaJHS Dec 15, 2015 8:35 5 NA 19.5 NA 5 NA 0.8 NA 8.1 32 NA
TerrHSHoumaJHS Dec 15, 2015 08;45 NA NA 20 NA 0 NA 2 NA 7.9 47.9 NA
TerrHSHoumaJHS Dec 15, 2015 0845 4 NA 20 NA 0 NA 3.8 NA 8.0 29.6 NA
TerrHSHoumaJHS Dec 15, 2012 3 NA 4 NA 1 NA 8 NA 8.0 29.6 NA
TerrHSHoumaJHS Jan 12, 2016 1145 NA 15 NA 0 NA NA NA 7.8 33 NA
TerrHSHoumaJHS Jan 12, 2016 1241 1 NA 14 NA 1 NA NA NA 7.4 26 NA
TerrHSHoumaJHS Jan 12, 2016 1214 2 14 NA 2 NA NA NA 7.3 NA 15.3 NA
TerrHSHoumaJHS Jan 12, 2016 1241 4 13 NA 0 NA NA NA 7.1 17.1 NA
TerrHSHoumaJHS Jan 12, 2016 234 1 NA 10 NA 0 NA NA NA 8.3 24 NA
TerrHSHoumaJHS Jan 12, 2016 745 Group 2 12 0 NA NA 8.3 24 NA
TerrHSHoumaJHS Jan 12, 2016 733 3 NA 10 NA 0 NA NA NA 8.3 24 NA
TerrHSHoumaJHS Jan 12, 2016 7:34 4 NA 11 NA 0 NA NA 8.3 27 NA
TerrHSHoumaJHS Jan 12, 2016 1145 3 NA 13 NA 0 NA NA NA 7.6 28 NA
TerrHSHoumaJHS Jan 12, 2016 13:48 5 NA 12 NA 1 NA NA NA 7.5 32 NA
TerrHSHoumaJHS Jan 12, 2016 13:40 3 NA 13 NA 1 NA NA NA 70.4 26.2 NA
TerrHSHoumaJHS Jan 12, 2016 14:00 6 NA 14 NA 1 NA NA NA 7.7 20.9 NA
TerrHSHoumaJHS Feb 4, 2016 0738 1 NA 16 NA 0 NA NA NA 7.7 37.2 NA
TerrHSHoumaJHS Feb 4, 2016 0740 2 NA 5 NA 0 NA NA 7.7 34 NA
TerrHSHoumaJHS Feb 4, 2016 0738 4 NA 16 NA 0 NA NA NA 8.1 26.3 NA
TerrHSHoumaJHS Feb 4, 2016 0738 3 16 NA 0 NA NA NA 8.3 32 NA
TerrHSHoumaJHS Feb 4, 2016 1151 1 NA 16 NA 0 NA NA NA 7.7 32 NA
TerrHSHoumaJHS Feb 4, 2016 1250 2 NA 18 NA 0 NA NA NA 7.7 31 NA
TerrHSHoumaJHS Feb 4, 2016 11:55 3 NA 17 NA 0 NA NA 7.6 36 NA
TerrHSHoumaJHS Feb 4, 2016 1155 4 NA 15 NA 0 NA NA NA 7.7 7.27 NA
TerrHSHoumaJHS Feb 4, 2016 1248 2 NA 18 NA 0 NA NA NA 7.3 36.3 NA
TerrHSHoumaJHS Feb 4, 2016 1246 3 NA 15 NA 0 NA NA 7.7 15 NA
TerrHSHoumaJHS Feb 4, 2016 1247 1 NA 18 0 0 NA NA NA 7.3 36.3 NA
TerrHSHoumaJHS Feb 4, 2016 1247 4 NA 18 NA 0 NA NA NA 7.3 36.3 NA
TerrHSHoumaJHS Feb 4, 2016 1344 1NA 18 NA 0 NA NA NA 7.9 51 NA
TerrHSHoumaJHS Feb 4, 2016 13:44 3 NA 18 NA 0 NA NA NA 7.8 51 NA
TerrHSHoumaJHS Feb 4, 2016 NA 18 NA 1 NA NA 7.8 36 NA
TerrHSHoumaJHS Feb 4, 2016 13:44 5 NA 18C NA 1 NA NA NA 7.8 32.8 NA
TerrHSHoumaJHS Feb 4, 2016 1344 2 NA 18 NA 1 NA NA NA 7.8 36 NA
TerrHSHoumaJHS Oct 4, 2016 0800 2 NA 26 NA 0 NA NA NA 7.5 36 NA
TerrHSHoumaJHS Oct 4, 2016 0730 4 NA 20 NA 0 NA NA NA 7.6 50 NA
TerrHSHoumaJHS Oct 4, 2016 0845 1 20 NA 0 NA NA NA 7.6 36.5
TerrHSHoumaJHS Oct 4, 2016 1255 1 NA 27 NA 0 NA NA NA 7.5 37.5 NA
TerrHSHoumaJHS Oct 4, 2016 1257 2 NA 27 NA 0 NA NA NA 7.5 33.2 NA
TerrHSHoumaJHS Oct 4, 2016 1255 3 NA 25 NA 0 NA NA NA 7.5 47.6 NA
TerrHSHoumaJHS Oct 4, 2016 1250 4 NA 28 NA 0 NA NA 7.5 43 NA
TerrHSHoumaJHS Jan 27, 2017 0845 0 15 NA 2 NA NA NA 8.6 37 NA NA
TerrHSHoumaJHS Jan 27, 2017 0845 0 15 NA 2 NA NA NA 8.6 37 NA NA
TerrHSHoumaJHS Jan 27, 2017 0845 1 15 NA 1 NA NA NA 8.0 45 NA NA
TerrHSHoumaJHS Jan 27, 2017 0845 2 15 NA 0 NA NA NA 8..0 35 NA NA
TerrHSHoumaJHS Feb 1, 2018 0750 1 NA NA NA NA NA NA NA NA NA
TerrHSHoumaJHS Feb 1, 2018 0750 1 NA 16 NA 0 NA NA 7.9 NA 43 NA
TerrHSHoumaJHS Feb 1, 2018 1255 8 NA 15 NA 0 NA NA 7.7 NA 36.2 NA
TerrHSHoumaJHS Feb 1, 2018 1255 10 NA 10 NA 0 NA NA 7.8 NA 43 NA
TerrHSHoumaJHS Feb 1, 2018 1255 11 NA 15 NA 0 NA NA 7.7 NA 45 NA
TerrHSHoumaJHS Feb 1, 2018 1257 12 NA 16 NA 0 NA NA 7.8 NA 40 NA
TerrHSHoumaJHS Feb 1, 2018 1257 9 NA 7.2 NA 1 NA NA 7.6 NA 45 NA
TerrHSHoumaJHS Feb 1, 2018 0750 2 NA 18 NA 1 NA NA 8.2 NA 39 NA
TerrHSHoumaJHS Feb 1, 2018 0750 4 NA 13 NA 0 NA NA NA 8.1 NA 35 NA
TerrHSHoumaJHS Feb 1, 2018 0750 5 NA 18 NA 0 NA NA NA 7.9 NA 29 NA
TerrHSHoumaJHS Oct 4, 2018 0910 7 NA 30 NA NA NA 0.6 NA 7.6 NA +60 NA
TerrHSHoumaJHS Sep 24, 2018 0930 10 NA 11 NA NA NA NA NA 7.3 NA NA NA
TerrHSHoumaJHS Sep 24, 2018 0210 1 NA 27 NA NA NA 0.5 N/A 7.4 NA NA NA
TerrHSHoumaJHS Oct 4, 2018 10:05 8 NA 15 NA NA NA 0.6 N/A 4.3 NA 32.1 NA
TerrHSHoumaJHS Sep 24, 2018 10:05 8 NA 15 NA NA NA 0.6 N/A 4.3 NA NA NA
TerrHSHoumaJHS Sep 24, 2018 1015 1 NA 30 NA NA NA 2.2 N/A 7.4 NA NA NA
TerrHSHoumaJHS Sep 28, 2018 1015 6 NA 30 NA NA NA 3 NA 7.3 NA NA NA
TerrHSHoumaJHS Sep 24, 2018 1015 2 NA 12 NA NA NA 2.3 N/A 7.3 NA NA NA
TerrHSHoumaJHS Sep 24, 2018 10:15 1 NA 30 NA NA NA 2.2 N/A 7.4 NA NA NA
TerrHSHoumaJHS Sep 24, 2018 1015 2 NA 12 NA NA NA 2.3 NA 7.3 NA NA NA
TerrHSHoumaJHS Sep 24, 2018 10:15 7 NA 17 NA NA NA 3 N/A 7.3 NA NA NA
TerrHSHoumaJHS Sep 24, 2018 1015 0 NA 20 NA NA NA 3 7.3 NA NA NA
TerrHSHoumaJHS Sep 24, 2018 13:30 2 NA 10 NA NA NA 1 N/A 7.3 NA +60 NA
TerrHSHoumaJHS Sep 24, 2018 13:24 3 NA 29 NA NA NA .6 N/A 7.2 NA NA NA
TerrHSHoumaJHS Sep 24, 2018 13:40 5 NA 29 NA NA NA 1.2 N/A 7.6 NA NA NA
TerrHSHoumaJHS Sep 24, 2018 13:30 2 NA 10 NA NA NA 1 N/A 7.3 NA NA NA
TerrHSHoumaJHS Sep 24, 2018 1:45 8 NA 4 NA NA NA 1.6 N/A 7.6 NA NA NA
TerrHSHoumaJHS Sep 24, 2018 1330 6 NA 26 NA NA NA 2.1 N/A 7.4 NA NA NA
TerrHSHoumaJHS Oct 12, 2018 0920 7 NA 26 NA NA NA 3.0 7.5 NA +60 NA
TerrHSHoumaJHS Oct 12, 2018 0930 8 NA 35 NA NA NA 1 8.3 NA NA NA
TerrHSHoumaJHS Oct 12, 2018 9:20 a.m 1 NA 14.6 NA NA NA 0.6 N/A 7.6 NA NA NA
TerrHSHoumaJHS Oct 12, 2018 9:20 6 25 25 NA NA 3.8 3.8 7.8 7.8 NA NA 4
TerrHSHoumaJHS Oct 12, 2018 0915 2 NA 23 NA NA NA 3.8 N/A 7.8 NA NA NA
TerrHSHoumaJHS Oct 12, 2018 0930 3 NA 20 NA NA NA 1 7.8 NA NA NA
TerrHSHoumaJHS Oct 12, 2018 9 : 20 a 8 NA 7 NA NA NA 1.6 7.2 NA NA NA
TerrHSHoumaJHS Oct 12, 2018 1015 1 NA 23 NA NA NA 2.6 N/A 7.4 NA NA NA
TerrHSHoumaJHS Oct 12, 2018 10:15 5 NA 12 NA NA NA 8.9 n/a 7.5 NA NA NA
TerrHSHoumaJHS Oct 12, 2018 0411 3 NA 20 NA NA NA 2 NA 7.3 NA NA NA
TerrHSHoumaJHS Oct 12, 2018 1015 7 NA 21 NA NA NA 1 N/A 7.3 NA NA NA
TerrHSHoumaJHS Oct 12, 2018 10:15 am 0 NA 20 NA NA NA 8.8 n/a 7.4 NA NA NA
TerrHSHoumaJHS Oct 12, 2018 10:15 am 0 NA 20 NA NA NA 8.8 NA 7.4 NA NA NA
TerrHSHoumaJHS Oct 12, 2018 0411 2 NA 12 NA NA NA 8.9 NA 7.5 NA NA NA
TerrHSHoumaJHS Oct 12, 2018 13:28 7 NA 27 NA NA NA 1.4 N/A 7.3 NA NA NA
TerrHSHoumaJHS Oct 12, 2018 13:30 1 24 24 NA NA 3 3 7.3 7.3 NA NA NA
TerrHSHoumaJHS Oct 12, 2018 1330 6 NA 23 NA NA NA 1.6 N/A 7.2 NA NA NA